PWSweather.com
Personal Weather Stations
Station Observations
GRACELEHAN
The Grace C. Lehan Memorial Weather Station, West Hartford, CT 06107

The Grace C. Lehan Memorial Weather StationWest Hartford, CT 06107

Lat: 41.745629, Lon: -72.7443516

Elevation: 136

Station Type: Davis Vantage Pro2 Plus

High Low Average
Temperature 49.0°F9.4°C 38.5°F3.6°C 44.8°F7.1°C
Dew Point 44.2°F6.8°C 29.7°F-1.3°C 37.2°F2.9°C
Winds 15.0 mph 24.1 kmh Calm Calm 3.0 mph WNW4.8 kmh WNW
Wind Gusts 18.0 mph29.0 kmh -- 4.0 mph6.4 kmh
Humidity 95% 56% 76%
Pressure 30.27 in1025.1 mb 29.98 in1015.2 mb -
Precipitation 0.00 in0.0 mm - -
Hour Temp Dew Point Humidity Winds Wind Gusts Pressure Precip Precip Rate Daily Precip Total
12:00 AM 44.8°F7.1°C 42.1°F5.6°C 90% Calm Calm -- 30.00 in1015.9 mb 0.01 in0.3 mm 0.00 in0.0 mm 0.01 in0.3 mm
12:02 AM 44.9°F7.2°C 42.2°F5.7°C 90% Calm Calm -- 30.00 in1015.9 mb 0.01 in0.3 mm 0.00 in0.0 mm 0.01 in0.3 mm
12:04 AM 44.9°F7.2°C 42.2°F5.7°C 90% Calm Calm -- 30.00 in1015.9 mb 0.01 in0.3 mm 0.00 in0.0 mm 0.01 in0.3 mm
12:06 AM 44.9°F7.2°C 42.2°F5.7°C 90% Calm Calm -- 30.00 in1015.9 mb 0.01 in0.3 mm 0.00 in0.0 mm 0.01 in0.3 mm
12:08 AM 44.9°F7.2°C 42.2°F5.7°C 90% Calm Calm -- 30.00 in1015.9 mb 0.01 in0.3 mm 0.00 in0.0 mm 0.01 in0.3 mm
12:10 AM 45.0°F7.2°C 42.3°F5.7°C 90% Calm Calm -- 30.00 in1015.9 mb 0.01 in0.3 mm 0.00 in0.0 mm 0.01 in0.3 mm
12:12 AM 45.0°F7.2°C 42.3°F5.7°C 90% Calm Calm -- 29.99 in1015.6 mb 0.01 in0.3 mm 0.00 in0.0 mm 0.01 in0.3 mm
12:14 AM 45.0°F7.2°C 42.3°F5.7°C 90% Calm Calm -- 29.99 in1015.6 mb 0.01 in0.3 mm 0.00 in0.0 mm 0.01 in0.3 mm
12:16 AM 45.0°F7.2°C 42.3°F5.7°C 90% Calm Calm -- 29.99 in1015.6 mb 0.02 in0.5 mm 0.30 in7.6 mm 0.02 in0.5 mm
12:18 AM 45.0°F7.2°C 42.3°F5.7°C 90% Calm Calm -- 29.99 in1015.6 mb 0.02 in0.5 mm 0.00 in0.0 mm 0.02 in0.5 mm
12:20 AM 45.0°F7.2°C 42.5°F5.8°C 91% Calm Calm -- 29.99 in1015.6 mb 0.02 in0.5 mm 0.00 in0.0 mm 0.02 in0.5 mm
12:22 AM 45.0°F7.2°C 42.3°F5.7°C 90% Calm Calm -- 29.99 in1015.6 mb 0.02 in0.5 mm 0.00 in0.0 mm 0.02 in0.5 mm
12:24 AM 45.0°F7.2°C 42.3°F5.7°C 90% Calm Calm -- 29.99 in1015.6 mb 0.02 in0.5 mm 0.00 in0.0 mm 0.02 in0.5 mm
12:26 AM 45.0°F7.2°C 42.5°F5.8°C 91% Calm Calm -- 29.99 in1015.6 mb 0.02 in0.5 mm 0.00 in0.0 mm 0.02 in0.5 mm
12:28 AM 45.0°F7.2°C 42.5°F5.8°C 91% Calm Calm -- 29.99 in1015.6 mb 0.02 in0.5 mm 0.00 in0.0 mm 0.02 in0.5 mm
12:30 AM 45.0°F7.2°C 42.5°F5.8°C 91% Calm Calm -- 29.99 in1015.6 mb 0.02 in0.5 mm 0.00 in0.0 mm 0.02 in0.5 mm
12:32 AM 45.0°F7.2°C 42.5°F5.8°C 91% Calm Calm -- 29.99 in1015.6 mb 0.02 in0.5 mm 0.00 in0.0 mm 0.02 in0.5 mm
12:34 AM 45.0°F7.2°C 42.5°F5.8°C 91% Calm Calm -- 29.98 in1015.2 mb 0.02 in0.5 mm 0.00 in0.0 mm 0.02 in0.5 mm
12:36 AM 45.0°F7.2°C 42.5°F5.8°C 91% Calm Calm -- 29.99 in1015.6 mb 0.03 in0.8 mm 0.30 in7.6 mm 0.03 in0.8 mm
12:38 AM 44.9°F7.2°C 42.4°F5.8°C 91% Calm Calm -- 29.99 in1015.6 mb 0.03 in0.8 mm 0.00 in0.0 mm 0.03 in0.8 mm
12:40 AM 44.9°F7.2°C 42.4°F5.8°C 91% Calm Calm -- 29.99 in1015.6 mb 0.03 in0.8 mm 0.00 in0.0 mm 0.03 in0.8 mm
12:42 AM 45.0°F7.2°C 42.5°F5.8°C 91% Calm Calm -- 29.99 in1015.6 mb 0.03 in0.8 mm 0.00 in0.0 mm 0.03 in0.8 mm
12:44 AM 45.0°F7.2°C 42.5°F5.8°C 91% Calm Calm -- 29.99 in1015.6 mb 0.03 in0.8 mm 0.00 in0.0 mm 0.03 in0.8 mm
12:46 AM 45.0°F7.2°C 42.8°F6.0°C 92% Calm Calm -- 29.99 in1015.6 mb 0.03 in0.8 mm 0.00 in0.0 mm 0.03 in0.8 mm
12:48 AM 45.0°F7.2°C 42.8°F6.0°C 92% Calm Calm -- 29.99 in1015.6 mb 0.03 in0.8 mm 0.00 in0.0 mm 0.03 in0.8 mm
12:50 AM 45.0°F7.2°C 42.8°F6.0°C 92% Calm Calm -- 29.99 in1015.6 mb 0.03 in0.8 mm 0.00 in0.0 mm 0.03 in0.8 mm
12:52 AM 45.0°F7.2°C 42.8°F6.0°C 92% Calm Calm -- 29.99 in1015.6 mb 0.03 in0.8 mm 0.00 in0.0 mm 0.03 in0.8 mm
12:54 AM 44.9°F7.2°C 42.7°F5.9°C 92% Calm Calm -- 29.99 in1015.6 mb 0.03 in0.8 mm 0.00 in0.0 mm 0.03 in0.8 mm
12:56 AM 44.9°F7.2°C 42.7°F5.9°C 92% Calm Calm -- 29.99 in1015.6 mb 0.03 in0.8 mm 0.00 in0.0 mm 0.03 in0.8 mm
12:58 AM 44.9°F7.2°C 42.7°F5.9°C 92% Calm Calm -- 29.99 in1015.6 mb 0.02 in0.5 mm 0.00 in0.0 mm 0.03 in0.8 mm
01:00 AM 44.9°F7.2°C 42.7°F5.9°C 92% Calm Calm -- 29.99 in1015.6 mb 0.02 in0.5 mm 0.00 in0.0 mm 0.03 in0.8 mm
01:02 AM 44.8°F7.1°C 42.6°F5.9°C 92% Calm Calm 1.0 mph1.6 kmh 29.99 in1015.6 mb 0.02 in0.5 mm 0.00 in0.0 mm 0.03 in0.8 mm
01:04 AM 44.8°F7.1°C 42.6°F5.9°C 92% Calm Calm -- 29.99 in1015.6 mb 0.02 in0.5 mm 0.00 in0.0 mm 0.03 in0.8 mm
01:06 AM 44.8°F7.1°C 42.6°F5.9°C 92% Calm Calm -- 29.99 in1015.6 mb 0.02 in0.5 mm 0.00 in0.0 mm 0.03 in0.8 mm
01:08 AM 44.9°F7.2°C 42.7°F5.9°C 92% Calm Calm -- 29.99 in1015.6 mb 0.02 in0.5 mm 0.00 in0.0 mm 0.03 in0.8 mm
01:10 AM 44.9°F7.2°C 43.0°F6.1°C 93% Calm Calm -- 29.99 in1015.6 mb 0.02 in0.5 mm 0.00 in0.0 mm 0.03 in0.8 mm
01:12 AM 45.0°F7.2°C 43.1°F6.2°C 93% Calm Calm -- 29.99 in1015.6 mb 0.02 in0.5 mm 0.00 in0.0 mm 0.03 in0.8 mm
01:14 AM 45.1°F7.3°C 43.2°F6.2°C 93% Calm Calm -- 29.98 in1015.2 mb 0.02 in0.5 mm 0.00 in0.0 mm 0.03 in0.8 mm
01:16 AM 45.1°F7.3°C 43.2°F6.2°C 93% Calm Calm -- 29.98 in1015.2 mb 0.01 in0.3 mm 0.00 in0.0 mm 0.03 in0.8 mm
01:18 AM 45.2°F7.3°C 43.3°F6.3°C 93% Calm Calm -- 29.98 in1015.2 mb 0.01 in0.3 mm 0.00 in0.0 mm 0.03 in0.8 mm
01:20 AM 45.3°F7.4°C 43.4°F6.3°C 93% Calm Calm 1.0 mph1.6 kmh 29.98 in1015.2 mb 0.01 in0.3 mm 0.00 in0.0 mm 0.03 in0.8 mm
01:22 AM 45.4°F7.4°C 43.5°F6.4°C 93% 1.0 mph SW1.6 kmh SW 1.0 mph1.6 kmh 29.98 in1015.2 mb 0.01 in0.3 mm 0.00 in0.0 mm 0.03 in0.8 mm
01:24 AM 45.4°F7.4°C 43.5°F6.4°C 93% Calm Calm -- 29.98 in1015.2 mb 0.01 in0.3 mm 0.00 in0.0 mm 0.03 in0.8 mm
01:26 AM 45.5°F7.5°C 43.9°F6.6°C 94% Calm Calm -- 29.98 in1015.2 mb 0.01 in0.3 mm 0.00 in0.0 mm 0.03 in0.8 mm
01:28 AM 45.6°F7.6°C 44.0°F6.7°C 94% Calm Calm -- 29.98 in1015.2 mb 0.01 in0.3 mm 0.00 in0.0 mm 0.03 in0.8 mm
01:30 AM 45.6°F7.6°C 44.0°F6.7°C 94% Calm Calm -- 29.98 in1015.2 mb 0.01 in0.3 mm 0.00 in0.0 mm 0.03 in0.8 mm
01:32 AM 45.7°F7.6°C 44.1°F6.7°C 94% Calm Calm -- 29.98 in1015.2 mb 0.01 in0.3 mm 0.00 in0.0 mm 0.03 in0.8 mm
01:34 AM 45.7°F7.6°C 44.1°F6.7°C 94% Calm Calm -- 29.98 in1015.2 mb 0.01 in0.3 mm 0.00 in0.0 mm 0.03 in0.8 mm
01:36 AM 45.8°F7.7°C 44.2°F6.8°C 94% Calm Calm -- 29.99 in1015.6 mb 0.00 in0.0 mm 0.00 in0.0 mm 0.03 in0.8 mm
01:38 AM 45.7°F7.6°C 44.1°F6.7°C 94% Calm Calm -- 29.98 in1015.2 mb 0.00 in0.0 mm 0.00 in0.0 mm 0.03 in0.8 mm
01:40 AM 45.8°F7.7°C 44.2°F6.8°C 94% Calm Calm -- 29.99 in1015.6 mb 0.00 in0.0 mm 0.00 in0.0 mm 0.03 in0.8 mm
01:42 AM 45.8°F7.7°C 44.2°F6.8°C 94% Calm Calm -- 29.99 in1015.6 mb 0.00 in0.0 mm 0.00 in0.0 mm 0.03 in0.8 mm
01:44 AM 45.7°F7.6°C 44.1°F6.7°C 94% Calm Calm -- 29.99 in1015.6 mb 0.00 in0.0 mm 0.00 in0.0 mm 0.03 in0.8 mm
01:46 AM 45.7°F7.6°C 44.1°F6.7°C 94% Calm Calm -- 29.99 in1015.6 mb 0.00 in0.0 mm 0.00 in0.0 mm 0.03 in0.8 mm
01:48 AM 45.7°F7.6°C 43.8°F6.6°C 93% Calm Calm -- 29.99 in1015.6 mb 0.00 in0.0 mm 0.00 in0.0 mm 0.03 in0.8 mm
01:50 AM 45.7°F7.6°C 43.8°F6.6°C 93% Calm Calm -- 30.00 in1015.9 mb 0.00 in0.0 mm 0.00 in0.0 mm 0.03 in0.8 mm
01:52 AM 45.7°F7.6°C 43.8°F6.6°C 93% Calm Calm -- 30.00 in1015.9 mb 0.00 in0.0 mm 0.00 in0.0 mm 0.03 in0.8 mm
01:54 AM 45.7°F7.6°C 43.8°F6.6°C 93% Calm Calm -- 30.00 in1015.9 mb 0.00 in0.0 mm 0.00 in0.0 mm 0.03 in0.8 mm
01:56 AM 45.7°F7.6°C 43.8°F6.6°C 93% Calm Calm -- 30.00 in1015.9 mb 0.00 in0.0 mm 0.00 in0.0 mm 0.03 in0.8 mm
01:58 AM 45.6°F7.6°C 43.7°F6.5°C 93% Calm Calm -- 30.00 in1015.9 mb 0.00 in0.0 mm 0.00 in0.0 mm 0.03 in0.8 mm
02:00 AM 45.6°F7.6°C 43.7°F6.5°C 93% Calm Calm -- 30.00 in1015.9 mb 0.00 in0.0 mm 0.00 in0.0 mm 0.03 in0.8 mm
02:02 AM 45.6°F7.6°C 43.7°F6.5°C 93% Calm Calm -- 30.00 in1015.9 mb 0.00 in0.0 mm 0.00 in0.0 mm 0.03 in0.8 mm
02:04 AM 45.6°F7.6°C 44.0°F6.7°C 94% Calm Calm -- 30.00 in1015.9 mb 0.00 in0.0 mm 0.00 in0.0 mm 0.03 in0.8 mm
02:06 AM 45.6°F7.6°C 44.0°F6.7°C 94% Calm Calm -- 30.00 in1015.9 mb 0.00 in0.0 mm 0.00 in0.0 mm 0.03 in0.8 mm
02:08 AM 45.6°F7.6°C 44.0°F6.7°C 94% Calm Calm -- 30.00 in1015.9 mb 0.00 in0.0 mm 0.00 in0.0 mm 0.03 in0.8 mm
02:10 AM 45.6°F7.6°C 44.0°F6.7°C 94% Calm Calm -- 30.00 in1015.9 mb 0.00 in0.0 mm 0.00 in0.0 mm 0.03 in0.8 mm
02:12 AM 45.6°F7.6°C 44.0°F6.7°C 94% Calm Calm -- 30.00 in1015.9 mb 0.00 in0.0 mm 0.00 in0.0 mm 0.03 in0.8 mm
02:14 AM 45.6°F7.6°C 44.0°F6.7°C 94% Calm Calm -- 30.00 in1015.9 mb 0.00 in0.0 mm 0.00 in0.0 mm 0.03 in0.8 mm
02:16 AM 45.6°F7.6°C 44.0°F6.7°C 94% Calm Calm -- 29.99 in1015.6 mb 0.00 in0.0 mm 0.00 in0.0 mm 0.03 in0.8 mm
02:18 AM 45.6°F7.6°C 44.0°F6.7°C 94% Calm Calm -- 30.00 in1015.9 mb 0.00 in0.0 mm 0.00 in0.0 mm 0.03 in0.8 mm
02:20 AM 45.6°F7.6°C 44.0°F6.7°C 94% Calm Calm -- 29.99 in1015.6 mb 0.00 in0.0 mm 0.00 in0.0 mm 0.03 in0.8 mm
02:22 AM 45.6°F7.6°C 44.0°F6.7°C 94% Calm Calm -- 29.99 in1015.6 mb 0.00 in0.0 mm 0.00 in0.0 mm 0.03 in0.8 mm
02:24 AM 45.6°F7.6°C 44.0°F6.7°C 94% Calm Calm -- 29.99 in1015.6 mb 0.00 in0.0 mm 0.00 in0.0 mm 0.03 in0.8 mm
02:26 AM 45.6°F7.6°C 44.0°F6.7°C 94% Calm Calm -- 29.99 in1015.6 mb 0.00 in0.0 mm 0.00 in0.0 mm 0.03 in0.8 mm
02:28 AM 45.6°F7.6°C 44.0°F6.7°C 94% Calm Calm -- 29.99 in1015.6 mb 0.00 in0.0 mm 0.00 in0.0 mm 0.03 in0.8 mm
02:30 AM 45.6°F7.6°C 44.0°F6.7°C 94% Calm Calm -- 29.99 in1015.6 mb 0.00 in0.0 mm 0.00 in0.0 mm 0.03 in0.8 mm
02:32 AM 45.6°F7.6°C 44.0°F6.7°C 94% Calm Calm -- 29.99 in1015.6 mb 0.00 in0.0 mm 0.00 in0.0 mm 0.03 in0.8 mm
02:34 AM 45.6°F7.6°C 44.0°F6.7°C 94% Calm Calm -- 29.99 in1015.6 mb 0.00 in0.0 mm 0.00 in0.0 mm 0.03 in0.8 mm
02:36 AM 45.6°F7.6°C 44.0°F6.7°C 94% Calm Calm -- 29.99 in1015.6 mb 0.00 in0.0 mm 0.00 in0.0 mm 0.03 in0.8 mm
02:38 AM 45.5°F7.5°C 43.9°F6.6°C 94% Calm Calm -- 29.99 in1015.6 mb 0.00 in0.0 mm 0.00 in0.0 mm 0.03 in0.8 mm
02:40 AM 45.6°F7.6°C 44.0°F6.7°C 94% Calm Calm -- 29.99 in1015.6 mb 0.00 in0.0 mm 0.00 in0.0 mm 0.03 in0.8 mm
02:42 AM 45.6°F7.6°C 44.0°F6.7°C 94% Calm Calm -- 29.99 in1015.6 mb 0.00 in0.0 mm 0.00 in0.0 mm 0.03 in0.8 mm
02:44 AM 45.6°F7.6°C 44.0°F6.7°C 94% Calm Calm -- 29.99 in1015.6 mb 0.00 in0.0 mm 0.00 in0.0 mm 0.03 in0.8 mm
02:46 AM 45.6°F7.6°C 44.0°F6.7°C 94% Calm Calm -- 29.99 in1015.6 mb 0.00 in0.0 mm 0.00 in0.0 mm 0.03 in0.8 mm
02:48 AM 45.6°F7.6°C 44.0°F6.7°C 94% Calm Calm -- 29.98 in1015.2 mb 0.00 in0.0 mm 0.00 in0.0 mm 0.03 in0.8 mm
02:50 AM 45.6°F7.6°C 44.0°F6.7°C 94% Calm Calm -- 29.98 in1015.2 mb 0.00 in0.0 mm 0.00 in0.0 mm 0.03 in0.8 mm
02:52 AM 45.6°F7.6°C 44.0°F6.7°C 94% Calm Calm -- 29.98 in1015.2 mb 0.00 in0.0 mm 0.00 in0.0 mm 0.03 in0.8 mm
02:54 AM 45.6°F7.6°C 44.0°F6.7°C 94% Calm Calm -- 29.98 in1015.2 mb 0.00 in0.0 mm 0.00 in0.0 mm 0.03 in0.8 mm
02:56 AM 45.6°F7.6°C 44.0°F6.7°C 94% Calm Calm -- 29.98 in1015.2 mb 0.00 in0.0 mm 0.00 in0.0 mm 0.03 in0.8 mm
02:58 AM 45.6°F7.6°C 44.0°F6.7°C 94% Calm Calm -- 29.98 in1015.2 mb 0.00 in0.0 mm 0.00 in0.0 mm 0.03 in0.8 mm
03:00 AM 45.5°F7.5°C 43.9°F6.6°C 94% Calm Calm -- 29.98 in1015.2 mb 0.00 in0.0 mm 0.00 in0.0 mm 0.03 in0.8 mm
03:02 AM 45.5°F7.5°C 43.9°F6.6°C 94% Calm Calm -- 29.98 in1015.2 mb 0.00 in0.0 mm 0.00 in0.0 mm 0.03 in0.8 mm
03:04 AM 45.5°F7.5°C 43.9°F6.6°C 94% Calm Calm -- 29.98 in1015.2 mb 0.00 in0.0 mm 0.00 in0.0 mm 0.03 in0.8 mm
03:06 AM 45.4°F7.4°C 43.8°F6.6°C 94% Calm Calm -- 29.98 in1015.2 mb 0.00 in0.0 mm 0.00 in0.0 mm 0.03 in0.8 mm
03:08 AM 45.4°F7.4°C 43.8°F6.6°C 94% Calm Calm -- 29.99 in1015.6 mb 0.00 in0.0 mm 0.00 in0.0 mm 0.03 in0.8 mm
03:10 AM 45.4°F7.4°C 43.8°F6.6°C 94% Calm Calm -- 29.99 in1015.6 mb 0.00 in0.0 mm 0.00 in0.0 mm 0.03 in0.8 mm
03:12 AM 45.4°F7.4°C 43.8°F6.6°C 94% Calm Calm -- 29.99 in1015.6 mb 0.00 in0.0 mm 0.00 in0.0 mm 0.03 in0.8 mm
03:14 AM 45.3°F7.4°C 43.7°F6.5°C 94% Calm Calm -- 29.99 in1015.6 mb 0.00 in0.0 mm 0.00 in0.0 mm 0.03 in0.8 mm
03:16 AM 45.3°F7.4°C 43.7°F6.5°C 94% Calm Calm -- 29.99 in1015.6 mb 0.00 in0.0 mm 0.00 in0.0 mm 0.03 in0.8 mm
03:18 AM 45.2°F7.3°C 43.6°F6.4°C 94% Calm Calm -- 29.99 in1015.6 mb 0.00 in0.0 mm 0.00 in0.0 mm 0.03 in0.8 mm
03:20 AM 45.2°F7.3°C 43.6°F6.4°C 94% Calm Calm -- 29.99 in1015.6 mb 0.00 in0.0 mm 0.00 in0.0 mm 0.03 in0.8 mm
03:22 AM 45.2°F7.3°C 43.6°F6.4°C 94% Calm Calm -- 29.99 in1015.6 mb 0.00 in0.0 mm 0.00 in0.0 mm 0.03 in0.8 mm
03:24 AM 45.2°F7.3°C 43.6°F6.4°C 94% Calm Calm -- 29.98 in1015.2 mb 0.00 in0.0 mm 0.00 in0.0 mm 0.03 in0.8 mm
03:26 AM 45.2°F7.3°C 43.6°F6.4°C 94% Calm Calm -- 29.99 in1015.6 mb 0.00 in0.0 mm 0.00 in0.0 mm 0.03 in0.8 mm
03:28 AM 45.2°F7.3°C 43.6°F6.4°C 94% Calm Calm -- 29.98 in1015.2 mb 0.00 in0.0 mm 0.00 in0.0 mm 0.03 in0.8 mm
03:30 AM 45.1°F7.3°C 43.5°F6.4°C 94% Calm Calm -- 29.98 in1015.2 mb 0.00 in0.0 mm 0.00 in0.0 mm 0.03 in0.8 mm
03:32 AM 45.0°F7.2°C 43.4°F6.3°C 94% Calm Calm -- 29.98 in1015.2 mb 0.00 in0.0 mm 0.00 in0.0 mm 0.03 in0.8 mm
03:34 AM 45.0°F7.2°C 43.4°F6.3°C 94% Calm Calm -- 29.98 in1015.2 mb 0.00 in0.0 mm 0.00 in0.0 mm 0.03 in0.8 mm
03:36 AM 44.9°F7.2°C 43.3°F6.3°C 94% Calm Calm -- 29.98 in1015.2 mb 0.00 in0.0 mm 0.00 in0.0 mm 0.03 in0.8 mm
03:38 AM 44.8°F7.1°C 43.2°F6.2°C 94% 1.0 mph SW1.6 kmh SW 1.0 mph1.6 kmh 29.99 in1015.6 mb 0.00 in0.0 mm 0.00 in0.0 mm 0.03 in0.8 mm
03:40 AM 44.7°F7.1°C 43.1°F6.2°C 94% 2.0 mph SW3.2 kmh SW 2.0 mph3.2 kmh 29.99 in1015.6 mb 0.00 in0.0 mm 0.00 in0.0 mm 0.03 in0.8 mm
03:42 AM 44.7°F7.1°C 43.1°F6.2°C 94% Calm Calm 1.0 mph1.6 kmh 29.99 in1015.6 mb 0.00 in0.0 mm 0.00 in0.0 mm 0.03 in0.8 mm
03:44 AM 44.7°F7.1°C 43.1°F6.2°C 94% Calm Calm -- 29.99 in1015.6 mb 0.00 in0.0 mm 0.00 in0.0 mm 0.03 in0.8 mm
03:46 AM 44.7°F7.1°C 43.1°F6.2°C 94% Calm Calm -- 29.99 in1015.6 mb 0.00 in0.0 mm 0.00 in0.0 mm 0.03 in0.8 mm
03:48 AM 44.7°F7.1°C 43.1°F6.2°C 94% Calm Calm -- 29.99 in1015.6 mb 0.00 in0.0 mm 0.00 in0.0 mm 0.03 in0.8 mm
03:50 AM 44.7°F7.1°C 43.1°F6.2°C 94% Calm Calm -- 29.99 in1015.6 mb 0.00 in0.0 mm 0.00 in0.0 mm 0.03 in0.8 mm
03:52 AM 44.7°F7.1°C 43.1°F6.2°C 94% Calm Calm -- 29.99 in1015.6 mb 0.00 in0.0 mm 0.00 in0.0 mm 0.03 in0.8 mm
03:54 AM 44.7°F7.1°C 43.1°F6.2°C 94% Calm Calm -- 29.99 in1015.6 mb 0.00 in0.0 mm 0.00 in0.0 mm 0.03 in0.8 mm
03:56 AM 44.7°F7.1°C 43.4°F6.3°C 95% Calm Calm -- 29.99 in1015.6 mb 0.00 in0.0 mm 0.00 in0.0 mm 0.03 in0.8 mm
03:58 AM 44.6°F7.0°C 43.3°F6.3°C 95% Calm Calm -- 29.99 in1015.6 mb 0.00 in0.0 mm 0.00 in0.0 mm 0.03 in0.8 mm
04:00 AM 44.6°F7.0°C 43.3°F6.3°C 95% Calm Calm -- 29.99 in1015.6 mb 0.00 in0.0 mm 0.00 in0.0 mm 0.03 in0.8 mm
04:02 AM 44.6°F7.0°C 43.3°F6.3°C 95% 3.0 mph SW4.8 kmh SW 3.0 mph4.8 kmh 29.99 in1015.6 mb 0.00 in0.0 mm 0.00 in0.0 mm 0.03 in0.8 mm
04:04 AM 44.6°F7.0°C 43.3°F6.3°C 95% 2.0 mph SW3.2 kmh SW 3.0 mph4.8 kmh 29.99 in1015.6 mb 0.00 in0.0 mm 0.00 in0.0 mm 0.03 in0.8 mm
04:06 AM 44.6°F7.0°C 43.3°F6.3°C 95% 1.0 mph SW1.6 kmh SW 2.0 mph3.2 kmh 29.99 in1015.6 mb 0.00 in0.0 mm 0.00 in0.0 mm 0.03 in0.8 mm
04:08 AM 44.6°F7.0°C 43.3°F6.3°C 95% 3.0 mph WSW4.8 kmh WSW 4.0 mph6.4 kmh 29.99 in1015.6 mb 0.00 in0.0 mm 0.00 in0.0 mm 0.03 in0.8 mm
04:10 AM 44.6°F7.0°C 43.3°F6.3°C 95% Calm Calm -- 29.99 in1015.6 mb 0.00 in0.0 mm 0.00 in0.0 mm 0.03 in0.8 mm
04:12 AM 44.6°F7.0°C 43.3°F6.3°C 95% Calm Calm -- 30.00 in1015.9 mb 0.00 in0.0 mm 0.00 in0.0 mm 0.03 in0.8 mm
04:14 AM 44.6°F7.0°C 43.3°F6.3°C 95% Calm Calm -- 30.00 in1015.9 mb 0.00 in0.0 mm 0.00 in0.0 mm 0.03 in0.8 mm
04:16 AM 44.6°F7.0°C 43.3°F6.3°C 95% Calm Calm 2.0 mph3.2 kmh 30.00 in1015.9 mb 0.00 in0.0 mm 0.00 in0.0 mm 0.03 in0.8 mm
04:18 AM 44.7°F7.1°C 43.4°F6.3°C 95% Calm Calm -- 30.00 in1015.9 mb 0.00 in0.0 mm 0.00 in0.0 mm 0.03 in0.8 mm
04:20 AM 44.7°F7.1°C 43.4°F6.3°C 95% Calm Calm -- 30.00 in1015.9 mb 0.00 in0.0 mm 0.00 in0.0 mm 0.03 in0.8 mm
04:22 AM 44.7°F7.1°C 43.4°F6.3°C 95% Calm Calm -- 30.00 in1015.9 mb 0.00 in0.0 mm 0.00 in0.0 mm 0.03 in0.8 mm
04:24 AM 44.7°F7.1°C 43.4°F6.3°C 95% Calm Calm -- 30.00 in1015.9 mb 0.00 in0.0 mm 0.00 in0.0 mm 0.03 in0.8 mm
04:26 AM 44.7°F7.1°C 43.4°F6.3°C 95% Calm Calm -- 30.00 in1015.9 mb 0.00 in0.0 mm 0.00 in0.0 mm 0.03 in0.8 mm
04:28 AM 44.7°F7.1°C 43.4°F6.3°C 95% Calm Calm -- 30.00 in1015.9 mb 0.00 in0.0 mm 0.00 in0.0 mm 0.03 in0.8 mm
04:30 AM 44.7°F7.1°C 43.4°F6.3°C 95% Calm Calm -- 30.01 in1016.3 mb 0.00 in0.0 mm 0.00 in0.0 mm 0.03 in0.8 mm
04:32 AM 44.6°F7.0°C 43.3°F6.3°C 95% Calm Calm -- 30.01 in1016.3 mb 0.00 in0.0 mm 0.00 in0.0 mm 0.03 in0.8 mm
04:34 AM 44.7°F7.1°C 43.4°F6.3°C 95% Calm Calm 1.0 mph1.6 kmh 30.01 in1016.3 mb 0.00 in0.0 mm 0.00 in0.0 mm 0.03 in0.8 mm
04:36 AM 44.6°F7.0°C 43.3°F6.3°C 95% Calm Calm -- 30.01 in1016.3 mb 0.00 in0.0 mm 0.00 in0.0 mm 0.03 in0.8 mm
04:38 AM 44.7°F7.1°C 43.4°F6.3°C 95% Calm Calm -- 30.01 in1016.3 mb 0.00 in0.0 mm 0.00 in0.0 mm 0.03 in0.8 mm
04:40 AM 44.7°F7.1°C 43.4°F6.3°C 95% Calm Calm -- 30.01 in1016.3 mb 0.00 in0.0 mm 0.00 in0.0 mm 0.03 in0.8 mm
04:42 AM 44.7°F7.1°C 43.4°F6.3°C 95% Calm Calm -- 30.01 in1016.3 mb 0.00 in0.0 mm 0.00 in0.0 mm 0.03 in0.8 mm
04:44 AM 44.7°F7.1°C 43.4°F6.3°C 95% Calm Calm -- 30.01 in1016.3 mb 0.00 in0.0 mm 0.00 in0.0 mm 0.03 in0.8 mm
04:46 AM 44.7°F7.1°C 43.4°F6.3°C 95% Calm Calm -- 30.01 in1016.3 mb 0.00 in0.0 mm 0.00 in0.0 mm 0.03 in0.8 mm
04:48 AM 44.7°F7.1°C 43.4°F6.3°C 95% Calm Calm -- 30.01 in1016.3 mb 0.00 in0.0 mm 0.00 in0.0 mm 0.03 in0.8 mm
04:50 AM 44.7°F7.1°C 43.4°F6.3°C 95% Calm Calm -- 30.01 in1016.3 mb 0.00 in0.0 mm 0.00 in0.0 mm 0.03 in0.8 mm
04:52 AM 44.7°F7.1°C 43.4°F6.3°C 95% 2.0 mph W3.2 kmh W 6.0 mph9.7 kmh 30.01 in1016.3 mb 0.00 in0.0 mm 0.00 in0.0 mm 0.03 in0.8 mm
04:54 AM 44.7°F7.1°C 43.4°F6.3°C 95% 2.0 mph WSW3.2 kmh WSW 3.0 mph4.8 kmh 30.02 in1016.6 mb 0.00 in0.0 mm 0.00 in0.0 mm 0.03 in0.8 mm
04:56 AM 44.8°F7.1°C 43.5°F6.4°C 95% 2.0 mph W3.2 kmh W 2.0 mph3.2 kmh 30.02 in1016.6 mb 0.00 in0.0 mm 0.00 in0.0 mm 0.03 in0.8 mm
04:58 AM 44.8°F7.1°C 43.5°F6.4°C 95% 4.0 mph W6.4 kmh W 4.0 mph6.4 kmh 30.02 in1016.6 mb 0.00 in0.0 mm 0.00 in0.0 mm 0.03 in0.8 mm
05:00 AM 44.8°F7.1°C 43.5°F6.4°C 95% 2.0 mph W3.2 kmh W 2.0 mph3.2 kmh 30.02 in1016.6 mb 0.00 in0.0 mm 0.00 in0.0 mm 0.03 in0.8 mm
05:02 AM 44.9°F7.2°C 43.6°F6.4°C 95% 1.0 mph W1.6 kmh W 2.0 mph3.2 kmh 30.02 in1016.6 mb 0.00 in0.0 mm 0.00 in0.0 mm 0.03 in0.8 mm
05:04 AM 44.9°F7.2°C 43.6°F6.4°C 95% 6.0 mph W9.7 kmh W 6.0 mph9.7 kmh 30.02 in1016.6 mb 0.00 in0.0 mm 0.00 in0.0 mm 0.03 in0.8 mm
05:06 AM 44.9°F7.2°C 43.6°F6.4°C 95% 2.0 mph WNW3.2 kmh WNW 5.0 mph8.0 kmh 30.02 in1016.6 mb 0.00 in0.0 mm 0.00 in0.0 mm 0.03 in0.8 mm
05:08 AM 44.9°F7.2°C 43.6°F6.4°C 95% 5.0 mph WNW8.0 kmh WNW 5.0 mph8.0 kmh 30.02 in1016.6 mb 0.00 in0.0 mm 0.00 in0.0 mm 0.03 in0.8 mm
05:10 AM 44.9°F7.2°C 43.6°F6.4°C 95% 2.0 mph WNW3.2 kmh WNW 3.0 mph4.8 kmh 30.02 in1016.6 mb 0.00 in0.0 mm 0.00 in0.0 mm 0.03 in0.8 mm
05:12 AM 44.9°F7.2°C 43.6°F6.4°C 95% 3.0 mph NW4.8 kmh NW 6.0 mph9.7 kmh 30.03 in1016.9 mb 0.00 in0.0 mm 0.00 in0.0 mm 0.03 in0.8 mm
05:14 AM 44.8°F7.1°C 43.5°F6.4°C 95% 2.0 mph NW3.2 kmh NW 2.0 mph3.2 kmh 30.02 in1016.6 mb 0.00 in0.0 mm 0.00 in0.0 mm 0.03 in0.8 mm
05:16 AM 44.8°F7.1°C 43.5°F6.4°C 95% 2.0 mph WNW3.2 kmh WNW 2.0 mph3.2 kmh 30.02 in1016.6 mb 0.00 in0.0 mm 0.00 in0.0 mm 0.03 in0.8 mm
05:18 AM 44.8°F7.1°C 43.5°F6.4°C 95% 2.0 mph WNW3.2 kmh WNW 2.0 mph3.2 kmh 30.02 in1016.6 mb 0.00 in0.0 mm 0.00 in0.0 mm 0.03 in0.8 mm
05:20 AM 44.7°F7.1°C 43.4°F6.3°C 95% 1.0 mph WNW1.6 kmh WNW 3.0 mph4.8 kmh 30.02 in1016.6 mb 0.00 in0.0 mm 0.00 in0.0 mm 0.03 in0.8 mm
05:22 AM 44.7°F7.1°C 43.4°F6.3°C 95% 2.0 mph WNW3.2 kmh WNW 3.0 mph4.8 kmh 30.03 in1016.9 mb 0.00 in0.0 mm 0.00 in0.0 mm 0.03 in0.8 mm
05:26 AM 44.6°F7.0°C 43.3°F6.3°C 95% 1.0 mph WNW1.6 kmh WNW 2.0 mph3.2 kmh 30.03 in1016.9 mb 0.00 in0.0 mm 0.00 in0.0 mm 0.03 in0.8 mm
05:28 AM 44.6°F7.0°C 43.3°F6.3°C 95% Calm Calm 3.0 mph4.8 kmh 30.03 in1016.9 mb 0.00 in0.0 mm 0.00 in0.0 mm 0.03 in0.8 mm
05:30 AM 44.6°F7.0°C 43.3°F6.3°C 95% 1.0 mph WNW1.6 kmh WNW 2.0 mph3.2 kmh 30.03 in1016.9 mb 0.00 in0.0 mm 0.00 in0.0 mm 0.03 in0.8 mm
05:32 AM 44.5°F6.9°C 43.2°F6.2°C 95% 1.0 mph WNW1.6 kmh WNW 2.0 mph3.2 kmh 30.03 in1016.9 mb 0.00 in0.0 mm 0.00 in0.0 mm 0.03 in0.8 mm
05:34 AM 44.5°F6.9°C 43.2°F6.2°C 95% Calm Calm -- 30.03 in1016.9 mb 0.00 in0.0 mm 0.00 in0.0 mm 0.03 in0.8 mm
05:36 AM 44.5°F6.9°C 42.9°F6.1°C 94% 1.0 mph WNW1.6 kmh WNW 1.0 mph1.6 kmh 30.03 in1016.9 mb 0.00 in0.0 mm 0.00 in0.0 mm 0.03 in0.8 mm
05:38 AM 44.4°F6.9°C 42.8°F6.0°C 94% Calm Calm -- 30.03 in1016.9 mb 0.00 in0.0 mm 0.00 in0.0 mm 0.03 in0.8 mm
05:40 AM 44.4°F6.9°C 42.8°F6.0°C 94% Calm Calm -- 30.03 in1016.9 mb 0.00 in0.0 mm 0.00 in0.0 mm 0.03 in0.8 mm
05:42 AM 44.3°F6.8°C 42.7°F5.9°C 94% Calm Calm -- 30.03 in1016.9 mb 0.00 in0.0 mm 0.00 in0.0 mm 0.03 in0.8 mm
05:44 AM 44.3°F6.8°C 42.7°F5.9°C 94% 4.0 mph WNW6.4 kmh WNW 4.0 mph6.4 kmh 30.04 in1017.3 mb 0.00 in0.0 mm 0.00 in0.0 mm 0.03 in0.8 mm
05:46 AM 44.3°F6.8°C 42.7°F5.9°C 94% Calm Calm 4.0 mph6.4 kmh 30.04 in1017.3 mb 0.00 in0.0 mm 0.00 in0.0 mm 0.03 in0.8 mm
05:48 AM 44.2°F6.8°C 42.6°F5.9°C 94% Calm Calm -- 30.04 in1017.3 mb 0.00 in0.0 mm 0.00 in0.0 mm 0.03 in0.8 mm
05:50 AM 44.2°F6.8°C 42.6°F5.9°C 94% Calm Calm -- 30.04 in1017.3 mb 0.00 in0.0 mm 0.00 in0.0 mm 0.03 in0.8 mm
05:52 AM 44.1°F6.7°C 42.5°F5.8°C 94% 4.0 mph WNW6.4 kmh WNW 4.0 mph6.4 kmh 30.04 in1017.3 mb 0.00 in0.0 mm 0.00 in0.0 mm 0.03 in0.8 mm
05:54 AM 44.1°F6.7°C 42.5°F5.8°C 94% 3.0 mph WNW4.8 kmh WNW 3.0 mph4.8 kmh 30.04 in1017.3 mb 0.00 in0.0 mm 0.00 in0.0 mm 0.03 in0.8 mm
05:56 AM 44.0°F6.7°C 42.4°F5.8°C 94% Calm Calm 2.0 mph3.2 kmh 30.05 in1017.6 mb 0.00 in0.0 mm 0.00 in0.0 mm 0.03 in0.8 mm
05:58 AM 44.0°F6.7°C 42.4°F5.8°C 94% Calm Calm 2.0 mph3.2 kmh 30.05 in1017.6 mb 0.00 in0.0 mm 0.00 in0.0 mm 0.03 in0.8 mm
06:04 AM 43.8°F6.6°C 42.2°F5.7°C 94% 2.0 mph WNW3.2 kmh WNW 3.0 mph4.8 kmh 30.05 in1017.6 mb 0.00 in0.0 mm 0.00 in0.0 mm 0.03 in0.8 mm
06:06 AM 43.7°F6.5°C 42.1°F5.6°C 94% Calm Calm 1.0 mph1.6 kmh 30.05 in1017.6 mb 0.00 in0.0 mm 0.00 in0.0 mm 0.03 in0.8 mm
06:08 AM 43.6°F6.4°C 42.0°F5.6°C 94% 3.0 mph WNW4.8 kmh WNW 3.0 mph4.8 kmh 30.05 in1017.6 mb 0.00 in0.0 mm 0.00 in0.0 mm 0.03 in0.8 mm
06:10 AM 43.5°F6.4°C 41.6°F5.3°C 93% Calm Calm 2.0 mph3.2 kmh 30.05 in1017.6 mb 0.00 in0.0 mm 0.00 in0.0 mm 0.03 in0.8 mm
06:12 AM 43.5°F6.4°C 41.6°F5.3°C 93% Calm Calm 3.0 mph4.8 kmh 30.05 in1017.6 mb 0.00 in0.0 mm 0.00 in0.0 mm 0.03 in0.8 mm
06:14 AM 43.4°F6.3°C 41.5°F5.3°C 93% 1.0 mph WNW1.6 kmh WNW 3.0 mph4.8 kmh 30.05 in1017.6 mb 0.00 in0.0 mm 0.00 in0.0 mm 0.03 in0.8 mm
06:16 AM 43.3°F6.3°C 41.4°F5.2°C 93% 3.0 mph WNW4.8 kmh WNW 3.0 mph4.8 kmh 30.05 in1017.6 mb 0.00 in0.0 mm 0.00 in0.0 mm 0.03 in0.8 mm
06:18 AM 43.3°F6.3°C 41.4°F5.2°C 93% Calm Calm 1.0 mph1.6 kmh 30.05 in1017.6 mb 0.00 in0.0 mm 0.00 in0.0 mm 0.03 in0.8 mm
06:20 AM 43.2°F6.2°C 41.3°F5.2°C 93% 2.0 mph WNW3.2 kmh WNW 2.0 mph3.2 kmh 30.06 in1017.9 mb 0.00 in0.0 mm 0.00 in0.0 mm 0.03 in0.8 mm
06:22 AM 43.1°F6.2°C 41.2°F5.1°C 93% Calm Calm -- 30.05 in1017.6 mb 0.00 in0.0 mm 0.00 in0.0 mm 0.03 in0.8 mm
06:24 AM 43.0°F6.1°C 40.8°F4.9°C 92% Calm Calm 4.0 mph6.4 kmh 30.06 in1017.9 mb 0.00 in0.0 mm 0.00 in0.0 mm 0.03 in0.8 mm
06:26 AM 43.0°F6.1°C 40.8°F4.9°C 92% Calm Calm -- 30.06 in1017.9 mb 0.00 in0.0 mm 0.00 in0.0 mm 0.03 in0.8 mm
06:28 AM 42.9°F6.1°C 40.7°F4.8°C 92% 1.0 mph NW1.6 kmh NW 2.0 mph3.2 kmh 30.06 in1017.9 mb 0.00 in0.0 mm 0.00 in0.0 mm 0.03 in0.8 mm
06:30 AM 42.9°F6.1°C 40.7°F4.8°C 92% Calm Calm -- 30.06 in1017.9 mb 0.00 in0.0 mm 0.00 in0.0 mm 0.03 in0.8 mm
06:32 AM 42.8°F6.0°C 40.6°F4.8°C 92% 2.0 mph NW3.2 kmh NW 2.0 mph3.2 kmh 30.07 in1018.3 mb 0.00 in0.0 mm 0.00 in0.0 mm 0.03 in0.8 mm
06:34 AM 42.7°F5.9°C 40.5°F4.7°C 92% 2.0 mph NW3.2 kmh NW 2.0 mph3.2 kmh 30.07 in1018.3 mb 0.00 in0.0 mm 0.00 in0.0 mm 0.03 in0.8 mm
06:36 AM 42.7°F5.9°C 40.3°F4.6°C 91% Calm Calm 1.0 mph1.6 kmh 30.07 in1018.3 mb 0.00 in0.0 mm 0.00 in0.0 mm 0.03 in0.8 mm
06:38 AM 42.7°F5.9°C 40.3°F4.6°C 91% Calm Calm -- 30.07 in1018.3 mb 0.00 in0.0 mm 0.00 in0.0 mm 0.03 in0.8 mm
06:40 AM 42.6°F5.9°C 40.2°F4.6°C 91% Calm Calm -- 30.07 in1018.3 mb 0.00 in0.0 mm 0.00 in0.0 mm 0.03 in0.8 mm
06:42 AM 42.5°F5.8°C 40.1°F4.5°C 91% 1.0 mph NW1.6 kmh NW 3.0 mph4.8 kmh 30.07 in1018.3 mb 0.00 in0.0 mm 0.00 in0.0 mm 0.03 in0.8 mm
06:44 AM 42.5°F5.8°C 40.1°F4.5°C 91% 1.0 mph NW1.6 kmh NW 2.0 mph3.2 kmh 30.07 in1018.3 mb 0.00 in0.0 mm 0.00 in0.0 mm 0.03 in0.8 mm
06:46 AM 42.5°F5.8°C 40.1°F4.5°C 91% 3.0 mph NW4.8 kmh NW 4.0 mph6.4 kmh 30.07 in1018.3 mb 0.00 in0.0 mm 0.00 in0.0 mm 0.03 in0.8 mm
06:48 AM 42.4°F5.8°C 40.0°F4.4°C 91% Calm Calm -- 30.07 in1018.3 mb 0.00 in0.0 mm 0.00 in0.0 mm 0.03 in0.8 mm
06:50 AM 42.4°F5.8°C 40.0°F4.4°C 91% Calm Calm -- 30.07 in1018.3 mb 0.00 in0.0 mm 0.00 in0.0 mm 0.03 in0.8 mm
06:52 AM 42.3°F5.7°C 39.9°F4.4°C 91% 1.0 mph NW1.6 kmh NW 3.0 mph4.8 kmh 30.08 in1018.6 mb 0.00 in0.0 mm 0.00 in0.0 mm 0.03 in0.8 mm
06:54 AM 42.2°F5.7°C 39.8°F4.3°C 91% Calm Calm 2.0 mph3.2 kmh 30.08 in1018.6 mb 0.00 in0.0 mm 0.00 in0.0 mm 0.03 in0.8 mm
06:56 AM 42.2°F5.7°C 39.8°F4.3°C 91% Calm Calm -- 30.08 in1018.6 mb 0.00 in0.0 mm 0.00 in0.0 mm 0.03 in0.8 mm
06:58 AM 42.2°F5.7°C 39.8°F4.3°C 91% Calm Calm -- 30.08 in1018.6 mb 0.00 in0.0 mm 0.00 in0.0 mm 0.03 in0.8 mm
07:00 AM 42.1°F5.6°C 39.7°F4.3°C 91% Calm Calm -- 30.08 in1018.6 mb 0.00 in0.0 mm 0.00 in0.0 mm 0.03 in0.8 mm
07:02 AM 42.1°F5.6°C 39.7°F4.3°C 91% Calm Calm 3.0 mph4.8 kmh 30.08 in1018.6 mb 0.00 in0.0 mm 0.00 in0.0 mm 0.03 in0.8 mm
07:04 AM 42.1°F5.6°C 39.4°F4.1°C 90% 2.0 mph NW3.2 kmh NW 2.0 mph3.2 kmh 30.08 in1018.6 mb 0.00 in0.0 mm 0.00 in0.0 mm 0.03 in0.8 mm
07:06 AM 42.1°F5.6°C 39.4°F4.1°C 90% Calm Calm 3.0 mph4.8 kmh 30.08 in1018.6 mb 0.00 in0.0 mm 0.00 in0.0 mm 0.03 in0.8 mm
07:08 AM 42.1°F5.6°C 39.4°F4.1°C 90% 2.0 mph NW3.2 kmh NW 3.0 mph4.8 kmh 30.08 in1018.6 mb 0.00 in0.0 mm 0.00 in0.0 mm 0.03 in0.8 mm
07:10 AM 42.1°F5.6°C 39.4°F4.1°C 90% 2.0 mph NW3.2 kmh NW 2.0 mph3.2 kmh 30.08 in1018.6 mb 0.00 in0.0 mm 0.00 in0.0 mm 0.03 in0.8 mm
07:12 AM 42.1°F5.6°C 39.4°F4.1°C 90% Calm Calm 2.0 mph3.2 kmh 30.08 in1018.6 mb 0.00 in0.0 mm 0.00 in0.0 mm 0.03 in0.8 mm
07:14 AM 42.0°F5.6°C 39.3°F4.1°C 90% 2.0 mph NW3.2 kmh NW 3.0 mph4.8 kmh 30.08 in1018.6 mb 0.00 in0.0 mm 0.00 in0.0 mm 0.03 in0.8 mm
07:16 AM 42.0°F5.6°C 39.3°F4.1°C 90% 2.0 mph NW3.2 kmh NW 3.0 mph4.8 kmh 30.09 in1019.0 mb 0.00 in0.0 mm 0.00 in0.0 mm 0.03 in0.8 mm
07:18 AM 41.9°F5.5°C 39.2°F4.0°C 90% 1.0 mph NW1.6 kmh NW 2.0 mph3.2 kmh 30.09 in1019.0 mb 0.00 in0.0 mm 0.00 in0.0 mm 0.03 in0.8 mm
07:20 AM 41.9°F5.5°C 39.2°F4.0°C 90% 1.0 mph NW1.6 kmh NW 2.0 mph3.2 kmh 30.09 in1019.0 mb 0.00 in0.0 mm 0.00 in0.0 mm 0.03 in0.8 mm
07:22 AM 41.9°F5.5°C 39.2°F4.0°C 90% 1.0 mph NW1.6 kmh NW 2.0 mph3.2 kmh 30.09 in1019.0 mb 0.00 in0.0 mm 0.00 in0.0 mm 0.03 in0.8 mm
07:24 AM 41.8°F5.4°C 39.1°F3.9°C 90% Calm Calm -- 30.09 in1019.0 mb 0.00 in0.0 mm 0.00 in0.0 mm 0.03 in0.8 mm
07:26 AM 41.8°F5.4°C 39.1°F3.9°C 90% 1.0 mph NW1.6 kmh NW 1.0 mph1.6 kmh 30.09 in1019.0 mb 0.00 in0.0 mm 0.00 in0.0 mm 0.03 in0.8 mm
07:28 AM 41.8°F5.4°C 39.1°F3.9°C 90% 2.0 mph NW3.2 kmh NW 2.0 mph3.2 kmh 30.09 in1019.0 mb 0.00 in0.0 mm 0.00 in0.0 mm 0.03 in0.8 mm
07:30 AM 41.7°F5.4°C 39.0°F3.9°C 90% Calm Calm -- 30.09 in1019.0 mb 0.00 in0.0 mm 0.00 in0.0 mm 0.03 in0.8 mm
07:32 AM 41.6°F5.3°C 38.9°F3.8°C 90% Calm Calm -- 30.09 in1019.0 mb 0.00 in0.0 mm 0.00 in0.0 mm 0.03 in0.8 mm
07:34 AM 41.6°F5.3°C 38.9°F3.8°C 90% Calm Calm -- 30.09 in1019.0 mb 0.00 in0.0 mm 0.00 in0.0 mm 0.03 in0.8 mm
07:36 AM 41.5°F5.3°C 38.8°F3.8°C 90% Calm Calm -- 30.09 in1019.0 mb 0.00 in0.0 mm 0.00 in0.0 mm 0.03 in0.8 mm
07:38 AM 41.5°F5.3°C 38.8°F3.8°C 90% Calm Calm -- 30.09 in1019.0 mb 0.00 in0.0 mm 0.00 in0.0 mm 0.03 in0.8 mm
07:40 AM 41.4°F5.2°C 38.7°F3.7°C 90% 1.0 mph NW1.6 kmh NW 1.0 mph1.6 kmh 30.09 in1019.0 mb 0.00 in0.0 mm 0.00 in0.0 mm 0.03 in0.8 mm
07:42 AM 41.4°F5.2°C 38.7°F3.7°C 90% Calm Calm -- 30.10 in1019.3 mb 0.00 in0.0 mm 0.00 in0.0 mm 0.03 in0.8 mm
07:44 AM 41.3°F5.2°C 38.6°F3.7°C 90% 1.0 mph NW1.6 kmh NW 2.0 mph3.2 kmh 30.10 in1019.3 mb 0.00 in0.0 mm 0.00 in0.0 mm 0.03 in0.8 mm
07:46 AM 41.3°F5.2°C 38.9°F3.8°C 91% 1.0 mph NW1.6 kmh NW 2.0 mph3.2 kmh 30.10 in1019.3 mb 0.00 in0.0 mm 0.00 in0.0 mm 0.03 in0.8 mm
07:48 AM 41.3°F5.2°C 38.9°F3.8°C 91% 3.0 mph NW4.8 kmh NW 4.0 mph6.4 kmh 30.10 in1019.3 mb 0.00 in0.0 mm 0.00 in0.0 mm 0.03 in0.8 mm
07:50 AM 41.3°F5.2°C 38.6°F3.7°C 90% Calm Calm 1.0 mph1.6 kmh 30.10 in1019.3 mb 0.00 in0.0 mm 0.00 in0.0 mm 0.03 in0.8 mm
07:52 AM 41.4°F5.2°C 39.0°F3.9°C 91% Calm Calm -- 30.10 in1019.3 mb 0.00 in0.0 mm 0.00 in0.0 mm 0.03 in0.8 mm
07:54 AM 41.4°F5.2°C 39.0°F3.9°C 91% Calm Calm 3.0 mph4.8 kmh 30.10 in1019.3 mb 0.00 in0.0 mm 0.00 in0.0 mm 0.03 in0.8 mm
07:56 AM 41.4°F5.2°C 39.0°F3.9°C 91% 4.0 mph NW6.4 kmh NW 4.0 mph6.4 kmh 30.10 in1019.3 mb 0.00 in0.0 mm 0.00 in0.0 mm 0.03 in0.8 mm
07:58 AM 41.5°F5.3°C 39.1°F3.9°C 91% 3.0 mph NW4.8 kmh NW 3.0 mph4.8 kmh 30.10 in1019.3 mb 0.00 in0.0 mm 0.00 in0.0 mm 0.03 in0.8 mm
08:00 AM 41.5°F5.3°C 39.1°F3.9°C 91% 3.0 mph NW4.8 kmh NW 4.0 mph6.4 kmh 30.10 in1019.3 mb 0.00 in0.0 mm 0.00 in0.0 mm 0.03 in0.8 mm
08:02 AM 41.5°F5.3°C 39.1°F3.9°C 91% 4.0 mph NW6.4 kmh NW 4.0 mph6.4 kmh 30.11 in1019.6 mb 0.00 in0.0 mm 0.00 in0.0 mm 0.03 in0.8 mm
08:04 AM 41.6°F5.3°C 38.9°F3.8°C 90% 2.0 mph NW3.2 kmh NW 3.0 mph4.8 kmh 30.10 in1019.3 mb 0.00 in0.0 mm 0.00 in0.0 mm 0.03 in0.8 mm
08:06 AM 41.7°F5.4°C 39.0°F3.9°C 90% 2.0 mph NW3.2 kmh NW 2.0 mph3.2 kmh 30.10 in1019.3 mb 0.00 in0.0 mm 0.00 in0.0 mm 0.03 in0.8 mm
08:08 AM 41.8°F5.4°C 39.1°F3.9°C 90% 3.0 mph NW4.8 kmh NW 4.0 mph6.4 kmh 30.11 in1019.6 mb 0.00 in0.0 mm 0.00 in0.0 mm 0.03 in0.8 mm
08:10 AM 41.9°F5.5°C 39.2°F4.0°C 90% 4.0 mph NW6.4 kmh NW 4.0 mph6.4 kmh 30.11 in1019.6 mb 0.00 in0.0 mm 0.00 in0.0 mm 0.03 in0.8 mm
08:12 AM 42.0°F5.6°C 39.3°F4.1°C 90% 5.0 mph WNW8.0 kmh WNW 5.0 mph8.0 kmh 30.11 in1019.6 mb 0.00 in0.0 mm 0.00 in0.0 mm 0.03 in0.8 mm
08:14 AM 42.1°F5.6°C 39.4°F4.1°C 90% 5.0 mph WNW8.0 kmh WNW 5.0 mph8.0 kmh 30.11 in1019.6 mb 0.00 in0.0 mm 0.00 in0.0 mm 0.03 in0.8 mm
08:16 AM 42.3°F5.7°C 39.3°F4.1°C 89% 2.0 mph WNW3.2 kmh WNW 5.0 mph8.0 kmh 30.11 in1019.6 mb 0.00 in0.0 mm 0.00 in0.0 mm 0.03 in0.8 mm
08:18 AM 42.4°F5.8°C 39.4°F4.1°C 89% 1.0 mph NW1.6 kmh NW 5.0 mph8.0 kmh 30.11 in1019.6 mb 0.00 in0.0 mm 0.00 in0.0 mm 0.03 in0.8 mm
08:20 AM 42.5°F5.8°C 39.5°F4.2°C 89% 11.0 mph WNW17.7 kmh WNW 11.0 mph17.7 kmh 30.11 in1019.6 mb 0.00 in0.0 mm 0.00 in0.0 mm 0.03 in0.8 mm
08:22 AM 42.7°F5.9°C 39.4°F4.1°C 88% 6.0 mph WNW9.7 kmh WNW 10.0 mph16.1 kmh 30.12 in1020.0 mb 0.00 in0.0 mm 0.00 in0.0 mm 0.03 in0.8 mm
08:24 AM 42.9°F6.1°C 39.6°F4.2°C 88% 2.0 mph NW3.2 kmh NW 4.0 mph6.4 kmh 30.12 in1020.0 mb 0.00 in0.0 mm 0.00 in0.0 mm 0.03 in0.8 mm
08:26 AM 43.1°F6.2°C 39.5°F4.2°C 87% 2.0 mph N3.2 kmh N 2.0 mph3.2 kmh 30.11 in1019.6 mb 0.00 in0.0 mm 0.00 in0.0 mm 0.03 in0.8 mm
08:28 AM 43.2°F6.2°C 39.6°F4.2°C 87% 3.0 mph NW4.8 kmh NW 5.0 mph8.0 kmh 30.12 in1020.0 mb 0.00 in0.0 mm 0.00 in0.0 mm 0.03 in0.8 mm
08:30 AM 43.3°F6.3°C 39.7°F4.3°C 87% 5.0 mph NW8.0 kmh NW 6.0 mph9.7 kmh 30.11 in1019.6 mb 0.00 in0.0 mm 0.00 in0.0 mm 0.03 in0.8 mm
08:32 AM 43.6°F6.4°C 40.0°F4.4°C 87% 3.0 mph NW4.8 kmh NW 3.0 mph4.8 kmh 30.11 in1019.6 mb 0.00 in0.0 mm 0.00 in0.0 mm 0.03 in0.8 mm
08:34 AM 43.7°F6.5°C 39.8°F4.3°C 86% 6.0 mph NW9.7 kmh NW 6.0 mph9.7 kmh 30.11 in1019.6 mb 0.00 in0.0 mm 0.00 in0.0 mm 0.03 in0.8 mm
08:36 AM 43.8°F6.6°C 39.9°F4.4°C 86% 3.0 mph WNW4.8 kmh WNW 4.0 mph6.4 kmh 30.11 in1019.6 mb 0.00 in0.0 mm 0.00 in0.0 mm 0.03 in0.8 mm
08:38 AM 44.0°F6.7°C 40.1°F4.5°C 86% Calm Calm -- 30.11 in1019.6 mb 0.00 in0.0 mm 0.00 in0.0 mm 0.03 in0.8 mm
08:40 AM 44.1°F6.7°C 40.2°F4.6°C 86% 3.0 mph NW4.8 kmh NW 4.0 mph6.4 kmh 30.11 in1019.6 mb 0.00 in0.0 mm 0.00 in0.0 mm 0.03 in0.8 mm
08:42 AM 44.2°F6.8°C 40.0°F4.4°C 85% 3.0 mph NW4.8 kmh NW 4.0 mph6.4 kmh 30.11 in1019.6 mb 0.00 in0.0 mm 0.00 in0.0 mm 0.03 in0.8 mm
08:44 AM 44.3°F6.8°C 39.8°F4.3°C 84% 6.0 mph N9.7 kmh N 6.0 mph9.7 kmh 30.11 in1019.6 mb 0.00 in0.0 mm 0.00 in0.0 mm 0.03 in0.8 mm
08:46 AM 44.4°F6.9°C 39.9°F4.4°C 84% 2.0 mph WSW3.2 kmh WSW 5.0 mph8.0 kmh 30.12 in1020.0 mb 0.00 in0.0 mm 0.00 in0.0 mm 0.03 in0.8 mm
08:48 AM 44.6°F7.0°C 40.1°F4.5°C 84% 1.0 mph NW1.6 kmh NW 2.0 mph3.2 kmh 30.12 in1020.0 mb 0.00 in0.0 mm 0.00 in0.0 mm 0.03 in0.8 mm
08:50 AM 44.7°F7.1°C 40.2°F4.6°C 84% 5.0 mph WNW8.0 kmh WNW 6.0 mph9.7 kmh 30.12 in1020.0 mb 0.00 in0.0 mm 0.00 in0.0 mm 0.03 in0.8 mm
08:52 AM 44.8°F7.1°C 40.3°F4.6°C 84% 4.0 mph W6.4 kmh W 5.0 mph8.0 kmh 30.12 in1020.0 mb 0.00 in0.0 mm 0.00 in0.0 mm 0.03 in0.8 mm
08:54 AM 44.9°F7.2°C 40.1°F4.5°C 83% 3.0 mph WNW4.8 kmh WNW 3.0 mph4.8 kmh 30.12 in1020.0 mb 0.00 in0.0 mm 0.00 in0.0 mm 0.03 in0.8 mm
08:56 AM 45.1°F7.3°C 40.3°F4.6°C 83% 5.0 mph WNW8.0 kmh WNW 5.0 mph8.0 kmh 30.12 in1020.0 mb 0.00 in0.0 mm 0.00 in0.0 mm 0.03 in0.8 mm
08:58 AM 45.2°F7.3°C 40.0°F4.4°C 82% 6.0 mph WNW9.7 kmh WNW 6.0 mph9.7 kmh 30.12 in1020.0 mb 0.00 in0.0 mm 0.00 in0.0 mm 0.03 in0.8 mm
09:00 AM 45.3°F7.4°C 40.1°F4.5°C 82% 2.0 mph NW3.2 kmh NW 4.0 mph6.4 kmh 30.12 in1020.0 mb 0.00 in0.0 mm 0.00 in0.0 mm 0.03 in0.8 mm
09:02 AM 45.4°F7.4°C 40.2°F4.6°C 82% 3.0 mph W4.8 kmh W 3.0 mph4.8 kmh 30.12 in1020.0 mb 0.00 in0.0 mm 0.00 in0.0 mm 0.03 in0.8 mm
09:04 AM 45.5°F7.5°C 40.3°F4.6°C 82% 2.0 mph NW3.2 kmh NW 5.0 mph8.0 kmh 30.13 in1020.3 mb 0.00 in0.0 mm 0.00 in0.0 mm 0.03 in0.8 mm
09:06 AM 45.5°F7.5°C 40.3°F4.6°C 82% 2.0 mph NW3.2 kmh NW 5.0 mph8.0 kmh 30.13 in1020.3 mb 0.00 in0.0 mm 0.00 in0.0 mm 0.03 in0.8 mm
09:08 AM 45.6°F7.6°C 40.1°F4.5°C 81% 3.0 mph WNW4.8 kmh WNW 4.0 mph6.4 kmh 30.13 in1020.3 mb 0.00 in0.0 mm 0.00 in0.0 mm 0.03 in0.8 mm
09:10 AM 45.6°F7.6°C 40.1°F4.5°C 81% 7.0 mph N11.3 kmh N 7.0 mph11.3 kmh 30.13 in1020.3 mb 0.00 in0.0 mm 0.00 in0.0 mm 0.03 in0.8 mm
09:12 AM 45.7°F7.6°C 39.9°F4.4°C 80% 3.0 mph NW4.8 kmh NW 5.0 mph8.0 kmh 30.13 in1020.3 mb 0.00 in0.0 mm 0.00 in0.0 mm 0.03 in0.8 mm
09:16 AM 45.8°F7.7°C 40.3°F4.6°C 81% 2.0 mph NW3.2 kmh NW 3.0 mph4.8 kmh 30.13 in1020.3 mb 0.00 in0.0 mm 0.00 in0.0 mm 0.03 in0.8 mm
09:18 AM 45.9°F7.7°C 40.4°F4.7°C 81% Calm Calm 3.0 mph4.8 kmh 30.13 in1020.3 mb 0.00 in0.0 mm 0.00 in0.0 mm 0.03 in0.8 mm
09:20 AM 46.0°F7.8°C 40.2°F4.6°C 80% 4.0 mph WNW6.4 kmh WNW 8.0 mph12.9 kmh 30.12 in1020.0 mb 0.00 in0.0 mm 0.00 in0.0 mm 0.03 in0.8 mm
09:22 AM 46.0°F7.8°C 40.2°F4.6°C 80% 10.0 mph NW16.1 kmh NW 10.0 mph16.1 kmh 30.13 in1020.3 mb 0.00 in0.0 mm 0.00 in0.0 mm 0.03 in0.8 mm
09:24 AM 46.1°F7.8°C 40.3°F4.6°C 80% 4.0 mph NW6.4 kmh NW 6.0 mph9.7 kmh 30.13 in1020.3 mb 0.00 in0.0 mm 0.00 in0.0 mm 0.03 in0.8 mm
09:26 AM 46.1°F7.8°C 40.3°F4.6°C 80% 1.0 mph NW1.6 kmh NW 4.0 mph6.4 kmh 30.12 in1020.0 mb 0.00 in0.0 mm 0.00 in0.0 mm 0.03 in0.8 mm
09:28 AM 46.2°F7.9°C 40.4°F4.7°C 80% Calm Calm 4.0 mph6.4 kmh 30.12 in1020.0 mb 0.00 in0.0 mm 0.00 in0.0 mm 0.03 in0.8 mm
09:30 AM 46.3°F7.9°C 40.5°F4.7°C 80% 4.0 mph N6.4 kmh N 9.0 mph14.5 kmh 30.13 in1020.3 mb 0.00 in0.0 mm 0.00 in0.0 mm 0.03 in0.8 mm
09:32 AM 46.4°F8.0°C 39.9°F4.4°C 78% 2.0 mph NNW3.2 kmh NNW 4.0 mph6.4 kmh 30.13 in1020.3 mb 0.00 in0.0 mm 0.00 in0.0 mm 0.03 in0.8 mm
09:34 AM 46.4°F8.0°C 40.3°F4.6°C 79% 3.0 mph NNW4.8 kmh NNW 3.0 mph4.8 kmh 30.13 in1020.3 mb 0.00 in0.0 mm 0.00 in0.0 mm 0.03 in0.8 mm
09:36 AM 46.5°F8.1°C 40.4°F4.7°C 79% 5.0 mph NNW8.0 kmh NNW 5.0 mph8.0 kmh 30.13 in1020.3 mb 0.00 in0.0 mm 0.00 in0.0 mm 0.03 in0.8 mm
09:38 AM 46.5°F8.1°C 40.4°F4.7°C 79% 2.0 mph N3.2 kmh N 3.0 mph4.8 kmh 30.13 in1020.3 mb 0.00 in0.0 mm 0.00 in0.0 mm 0.03 in0.8 mm
09:40 AM 46.5°F8.1°C 40.4°F4.7°C 79% 5.0 mph W8.0 kmh W 5.0 mph8.0 kmh 30.13 in1020.3 mb 0.00 in0.0 mm 0.00 in0.0 mm 0.03 in0.8 mm
09:42 AM 46.6°F8.1°C 40.1°F4.5°C 78% 4.0 mph NW6.4 kmh NW 7.0 mph11.3 kmh 30.13 in1020.3 mb 0.00 in0.0 mm 0.00 in0.0 mm 0.03 in0.8 mm
09:44 AM 46.7°F8.2°C 40.2°F4.6°C 78% 4.0 mph NW6.4 kmh NW 4.0 mph6.4 kmh 30.13 in1020.3 mb 0.00 in0.0 mm 0.00 in0.0 mm 0.03 in0.8 mm
09:46 AM 46.8°F8.2°C 40.3°F4.6°C 78% 2.0 mph N3.2 kmh N 2.0 mph3.2 kmh 30.13 in1020.3 mb 0.00 in0.0 mm 0.00 in0.0 mm 0.03 in0.8 mm
09:48 AM 46.8°F8.2°C 40.3°F4.6°C 78% 1.0 mph NW1.6 kmh NW 3.0 mph4.8 kmh 30.13 in1020.3 mb 0.00 in0.0 mm 0.00 in0.0 mm 0.03 in0.8 mm
09:50 AM 46.9°F8.3°C 40.1°F4.5°C 77% 7.0 mph WNW11.3 kmh WNW 7.0 mph11.3 kmh 30.13 in1020.3 mb 0.00 in0.0 mm 0.00 in0.0 mm 0.03 in0.8 mm
09:52 AM 46.9°F8.3°C 40.1°F4.5°C 77% 3.0 mph NW4.8 kmh NW 5.0 mph8.0 kmh 30.13 in1020.3 mb 0.00 in0.0 mm 0.00 in0.0 mm 0.03 in0.8 mm
09:54 AM 47.0°F8.3°C 39.8°F4.3°C 76% 3.0 mph NW4.8 kmh NW 3.0 mph4.8 kmh 30.13 in1020.3 mb 0.00 in0.0 mm 0.00 in0.0 mm 0.03 in0.8 mm
09:56 AM 47.1°F8.4°C 39.9°F4.4°C 76% 4.0 mph NNW6.4 kmh NNW 5.0 mph8.0 kmh 30.13 in1020.3 mb 0.00 in0.0 mm 0.00 in0.0 mm 0.03 in0.8 mm
09:58 AM 47.2°F8.4°C 40.0°F4.4°C 76% 4.0 mph NW6.4 kmh NW 6.0 mph9.7 kmh 30.13 in1020.3 mb 0.00 in0.0 mm 0.00 in0.0 mm 0.03 in0.8 mm
10:00 AM 47.2°F8.4°C 40.0°F4.4°C 76% 9.0 mph NW14.5 kmh NW 9.0 mph14.5 kmh 30.13 in1020.3 mb 0.00 in0.0 mm 0.00 in0.0 mm 0.03 in0.8 mm
10:02 AM 47.3°F8.5°C 39.8°F4.3°C 75% 5.0 mph W8.0 kmh W 10.0 mph16.1 kmh 30.13 in1020.3 mb 0.00 in0.0 mm 0.00 in0.0 mm 0.03 in0.8 mm
10:04 AM 47.3°F8.5°C 39.8°F4.3°C 75% 3.0 mph NNE4.8 kmh NNE 5.0 mph8.0 kmh 30.13 in1020.3 mb 0.00 in0.0 mm 0.00 in0.0 mm 0.03 in0.8 mm
10:06 AM 47.4°F8.6°C 39.9°F4.4°C 75% 4.0 mph NNW6.4 kmh NNW 6.0 mph9.7 kmh 30.14 in1020.7 mb 0.00 in0.0 mm 0.00 in0.0 mm 0.03 in0.8 mm
10:08 AM 47.5°F8.6°C 40.0°F4.4°C 75% 5.0 mph NNW8.0 kmh NNW 8.0 mph12.9 kmh 30.14 in1020.7 mb 0.00 in0.0 mm 0.00 in0.0 mm 0.03 in0.8 mm
10:10 AM 47.6°F8.7°C 40.1°F4.5°C 75% 3.0 mph NNW4.8 kmh NNW 4.0 mph6.4 kmh 30.14 in1020.7 mb 0.00 in0.0 mm 0.00 in0.0 mm 0.03 in0.8 mm
10:12 AM 47.6°F8.7°C 40.1°F4.5°C 75% 2.0 mph N3.2 kmh N 4.0 mph6.4 kmh 30.14 in1020.7 mb 0.00 in0.0 mm 0.00 in0.0 mm 0.03 in0.8 mm
10:16 AM 47.8°F8.8°C 39.9°F4.4°C 74% 4.0 mph WNW6.4 kmh WNW 7.0 mph11.3 kmh 30.14 in1020.7 mb 0.00 in0.0 mm 0.00 in0.0 mm 0.03 in0.8 mm
10:18 AM 47.9°F8.8°C 40.0°F4.4°C 74% 4.0 mph WNW6.4 kmh WNW 5.0 mph8.0 kmh 30.13 in1020.3 mb 0.00 in0.0 mm 0.00 in0.0 mm 0.03 in0.8 mm
10:20 AM 48.0°F8.9°C 40.1°F4.5°C 74% 6.0 mph NW9.7 kmh NW 6.0 mph9.7 kmh 30.13 in1020.3 mb 0.00 in0.0 mm 0.00 in0.0 mm 0.03 in0.8 mm
10:22 AM 48.1°F8.9°C 39.9°F4.4°C 73% 4.0 mph NW6.4 kmh NW 5.0 mph8.0 kmh 30.13 in1020.3 mb 0.00 in0.0 mm 0.00 in0.0 mm 0.03 in0.8 mm
10:24 AM 48.2°F9.0°C 40.0°F4.4°C 73% 4.0 mph W6.4 kmh W 10.0 mph16.1 kmh 30.13 in1020.3 mb 0.00 in0.0 mm 0.00 in0.0 mm 0.03 in0.8 mm
10:26 AM 48.3°F9.1°C 39.7°F4.3°C 72% 3.0 mph NW4.8 kmh NW 11.0 mph17.7 kmh 30.13 in1020.3 mb 0.00 in0.0 mm 0.00 in0.0 mm 0.03 in0.8 mm
10:28 AM 48.3°F9.1°C 39.4°F4.1°C 71% 5.0 mph WNW8.0 kmh WNW 7.0 mph11.3 kmh 30.13 in1020.3 mb 0.00 in0.0 mm 0.00 in0.0 mm 0.03 in0.8 mm
10:30 AM 48.4°F9.1°C 39.1°F3.9°C 70% 7.0 mph N11.3 kmh N 9.0 mph14.5 kmh 30.13 in1020.3 mb 0.00 in0.0 mm 0.00 in0.0 mm 0.03 in0.8 mm
10:32 AM 48.4°F9.1°C 38.3°F3.5°C 68% 10.0 mph W16.1 kmh W 12.0 mph19.3 kmh 30.13 in1020.3 mb 0.00 in0.0 mm 0.00 in0.0 mm 0.03 in0.8 mm
10:34 AM 48.3°F9.1°C 37.9°F3.3°C 67% 6.0 mph NW9.7 kmh NW 13.0 mph20.9 kmh 30.13 in1020.3 mb 0.00 in0.0 mm 0.00 in0.0 mm 0.03 in0.8 mm
10:36 AM 48.3°F9.1°C 37.9°F3.3°C 67% 6.0 mph WNW9.7 kmh WNW 6.0 mph9.7 kmh 30.13 in1020.3 mb 0.00 in0.0 mm 0.00 in0.0 mm 0.03 in0.8 mm
10:38 AM 48.2°F9.0°C 37.8°F3.2°C 67% 5.0 mph N8.0 kmh N 5.0 mph8.0 kmh 30.13 in1020.3 mb 0.00 in0.0 mm 0.00 in0.0 mm 0.03 in0.8 mm
10:40 AM 48.2°F9.0°C 37.8°F3.2°C 67% 4.0 mph NE6.4 kmh NE 4.0 mph6.4 kmh 30.13 in1020.3 mb 0.00 in0.0 mm 0.00 in0.0 mm 0.03 in0.8 mm
10:42 AM 48.2°F9.0°C 37.4°F3.0°C 66% 7.0 mph NW11.3 kmh NW 7.0 mph11.3 kmh 30.13 in1020.3 mb 0.00 in0.0 mm 0.00 in0.0 mm 0.03 in0.8 mm
10:44 AM 48.2°F9.0°C 37.4°F3.0°C 66% 7.0 mph NW11.3 kmh NW 7.0 mph11.3 kmh 30.13 in1020.3 mb 0.00 in0.0 mm 0.00 in0.0 mm 0.03 in0.8 mm
10:46 AM 48.3°F9.1°C 37.9°F3.3°C 67% 4.0 mph NNW6.4 kmh NNW 7.0 mph11.3 kmh 30.13 in1020.3 mb 0.00 in0.0 mm 0.00 in0.0 mm 0.03 in0.8 mm
10:48 AM 48.3°F9.1°C 37.5°F3.1°C 66% 2.0 mph NNW3.2 kmh NNW 9.0 mph14.5 kmh 30.13 in1020.3 mb 0.00 in0.0 mm 0.00 in0.0 mm 0.03 in0.8 mm
10:50 AM 48.3°F9.1°C 37.1°F2.8°C 65% 7.0 mph NNW11.3 kmh NNW 11.0 mph17.7 kmh 30.13 in1020.3 mb 0.00 in0.0 mm 0.00 in0.0 mm 0.03 in0.8 mm
10:52 AM 48.3°F9.1°C 37.9°F3.3°C 67% 9.0 mph NW14.5 kmh NW 18.0 mph29.0 kmh 30.13 in1020.3 mb 0.00 in0.0 mm 0.00 in0.0 mm 0.03 in0.8 mm
10:54 AM 48.3°F9.1°C 37.1°F2.8°C 65% 5.0 mph NW8.0 kmh NW 7.0 mph11.3 kmh 30.13 in1020.3 mb 0.00 in0.0 mm 0.00 in0.0 mm 0.03 in0.8 mm
10:56 AM 48.3°F9.1°C 36.7°F2.6°C 64% 9.0 mph NNW14.5 kmh NNW 12.0 mph19.3 kmh 30.12 in1020.0 mb 0.00 in0.0 mm 0.00 in0.0 mm 0.03 in0.8 mm
10:58 AM 48.2°F9.0°C 36.6°F2.6°C 64% 3.0 mph NW4.8 kmh NW 12.0 mph19.3 kmh 30.12 in1020.0 mb 0.00 in0.0 mm 0.00 in0.0 mm 0.03 in0.8 mm
11:00 AM 48.2°F9.0°C 37.0°F2.8°C 65% 2.0 mph N3.2 kmh N 6.0 mph9.7 kmh 30.12 in1020.0 mb 0.00 in0.0 mm 0.00 in0.0 mm 0.03 in0.8 mm
11:02 AM 48.2°F9.0°C 37.0°F2.8°C 65% 11.0 mph NW17.7 kmh NW 11.0 mph17.7 kmh 30.12 in1020.0 mb 0.00 in0.0 mm 0.00 in0.0 mm 0.03 in0.8 mm
11:04 AM 48.1°F8.9°C 36.5°F2.5°C 64% 5.0 mph NW8.0 kmh NW 13.0 mph20.9 kmh 30.13 in1020.3 mb 0.00 in0.0 mm 0.00 in0.0 mm 0.03 in0.8 mm
11:06 AM 48.1°F8.9°C 36.5°F2.5°C 64% 2.0 mph NW3.2 kmh NW 10.0 mph16.1 kmh 30.13 in1020.3 mb 0.00 in0.0 mm 0.00 in0.0 mm 0.03 in0.8 mm
11:08 AM 48.1°F8.9°C 36.1°F2.3°C 63% 6.0 mph WSW9.7 kmh WSW 6.0 mph9.7 kmh 30.13 in1020.3 mb 0.00 in0.0 mm 0.00 in0.0 mm 0.03 in0.8 mm
11:10 AM 48.2°F9.0°C 36.2°F2.3°C 63% 2.0 mph NW3.2 kmh NW 11.0 mph17.7 kmh 30.13 in1020.3 mb 0.00 in0.0 mm 0.00 in0.0 mm 0.03 in0.8 mm
11:12 AM 48.3°F9.1°C 36.3°F2.4°C 63% 12.0 mph NNW19.3 kmh NNW 15.0 mph24.1 kmh 30.13 in1020.3 mb 0.00 in0.0 mm 0.00 in0.0 mm 0.03 in0.8 mm
11:14 AM 48.6°F9.2°C 36.6°F2.6°C 63% 14.0 mph W22.5 kmh W 14.0 mph22.5 kmh 30.12 in1020.0 mb 0.00 in0.0 mm 0.00 in0.0 mm 0.03 in0.8 mm
11:16 AM 48.8°F9.3°C 36.4°F2.4°C 62% 10.0 mph NW16.1 kmh NW 15.0 mph24.1 kmh 30.12 in1020.0 mb 0.00 in0.0 mm 0.00 in0.0 mm 0.03 in0.8 mm
11:18 AM 48.9°F9.4°C 36.9°F2.7°C 63% 7.0 mph NW11.3 kmh NW 10.0 mph16.1 kmh 30.12 in1020.0 mb 0.00 in0.0 mm 0.00 in0.0 mm 0.03 in0.8 mm
11:20 AM 49.0°F9.4°C 36.6°F2.6°C 62% 15.0 mph NW24.1 kmh NW 15.0 mph24.1 kmh 30.12 in1020.0 mb 0.00 in0.0 mm 0.00 in0.0 mm 0.03 in0.8 mm
11:22 AM 49.0°F9.4°C 36.6°F2.6°C 62% 7.0 mph NNW11.3 kmh NNW 9.0 mph14.5 kmh 30.12 in1020.0 mb 0.00 in0.0 mm 0.00 in0.0 mm 0.03 in0.8 mm
11:24 AM 49.0°F9.4°C 36.6°F2.6°C 62% 7.0 mph NW11.3 kmh NW 9.0 mph14.5 kmh 30.12 in1020.0 mb 0.00 in0.0 mm 0.00 in0.0 mm 0.03 in0.8 mm
11:26 AM 49.0°F9.4°C 36.6°F2.6°C 62% 4.0 mph NW6.4 kmh NW 5.0 mph8.0 kmh 30.12 in1020.0 mb 0.00 in0.0 mm 0.00 in0.0 mm 0.03 in0.8 mm
11:28 AM 49.0°F9.4°C 37.0°F2.8°C 63% 7.0 mph WNW11.3 kmh WNW 7.0 mph11.3 kmh 30.12 in1020.0 mb 0.00 in0.0 mm 0.00 in0.0 mm 0.03 in0.8 mm
11:30 AM 48.9°F9.4°C 36.5°F2.5°C 62% 3.0 mph NW4.8 kmh NW 7.0 mph11.3 kmh 30.12 in1020.0 mb 0.00 in0.0 mm 0.00 in0.0 mm 0.03 in0.8 mm
11:32 AM 48.9°F9.4°C 36.5°F2.5°C 62% 10.0 mph WNW16.1 kmh WNW 10.0 mph16.1 kmh 30.12 in1020.0 mb 0.00 in0.0 mm 0.00 in0.0 mm 0.03 in0.8 mm
11:34 AM 48.9°F9.4°C 36.5°F2.5°C 62% 9.0 mph WNW14.5 kmh WNW 9.0 mph14.5 kmh 30.13 in1020.3 mb 0.00 in0.0 mm 0.00 in0.0 mm 0.03 in0.8 mm
11:36 AM 48.8°F9.3°C 36.4°F2.4°C 62% 3.0 mph NW4.8 kmh NW 3.0 mph4.8 kmh 30.13 in1020.3 mb 0.00 in0.0 mm 0.00 in0.0 mm 0.03 in0.8 mm
11:38 AM 48.8°F9.3°C 36.4°F2.4°C 62% 2.0 mph WNW3.2 kmh WNW 4.0 mph6.4 kmh 30.13 in1020.3 mb 0.00 in0.0 mm 0.00 in0.0 mm 0.03 in0.8 mm
11:40 AM 48.8°F9.3°C 36.4°F2.4°C 62% 4.0 mph WNW6.4 kmh WNW 6.0 mph9.7 kmh 30.13 in1020.3 mb 0.00 in0.0 mm 0.00 in0.0 mm 0.03 in0.8 mm
11:42 AM 48.8°F9.3°C 36.4°F2.4°C 62% 6.0 mph NW9.7 kmh NW 6.0 mph9.7 kmh 30.13 in1020.3 mb 0.00 in0.0 mm 0.00 in0.0 mm 0.03 in0.8 mm
11:44 AM 48.7°F9.3°C 36.3°F2.4°C 62% 12.0 mph NW19.3 kmh NW 12.0 mph19.3 kmh 30.13 in1020.3 mb 0.00 in0.0 mm 0.00 in0.0 mm 0.03 in0.8 mm
11:46 AM 48.7°F9.3°C 36.3°F2.4°C 62% 4.0 mph NW6.4 kmh NW 4.0 mph6.4 kmh 30.13 in1020.3 mb 0.00 in0.0 mm 0.00 in0.0 mm 0.03 in0.8 mm
11:48 AM 48.7°F9.3°C 36.3°F2.4°C 62% 9.0 mph NW14.5 kmh NW 9.0 mph14.5 kmh 30.13 in1020.3 mb 0.00 in0.0 mm 0.00 in0.0 mm 0.03 in0.8 mm
11:50 AM 48.7°F9.3°C 36.3°F2.4°C 62% 11.0 mph NW17.7 kmh NW 11.0 mph17.7 kmh 30.13 in1020.3 mb 0.00 in0.0 mm 0.00 in0.0 mm 0.03 in0.8 mm
11:52 AM 48.6°F9.2°C 36.2°F2.3°C 62% 5.0 mph NW8.0 kmh NW 12.0 mph19.3 kmh 30.13 in1020.3 mb 0.00 in0.0 mm 0.00 in0.0 mm 0.03 in0.8 mm
11:54 AM 48.6°F9.2°C 36.2°F2.3°C 62% 5.0 mph WNW8.0 kmh WNW 7.0 mph11.3 kmh 30.13 in1020.3 mb 0.00 in0.0 mm 0.00 in0.0 mm 0.03 in0.8 mm
11:56 AM 48.6°F9.2°C 36.6°F2.6°C 63% 11.0 mph NW17.7 kmh NW 11.0 mph17.7 kmh 30.13 in1020.3 mb 0.00 in0.0 mm 0.00 in0.0 mm 0.03 in0.8 mm
11:58 AM 48.6°F9.2°C 36.2°F2.3°C 62% 5.0 mph W8.0 kmh W 6.0 mph9.7 kmh 30.13 in1020.3 mb 0.00 in0.0 mm 0.00 in0.0 mm 0.03 in0.8 mm
12:00 PM 48.5°F9.2°C 36.1°F2.3°C 62% 9.0 mph W14.5 kmh W 10.0 mph16.1 kmh 30.13 in1020.3 mb 0.00 in0.0 mm 0.00 in0.0 mm 0.03 in0.8 mm
12:02 PM 48.5°F9.2°C 36.1°F2.3°C 62% 7.0 mph N11.3 kmh N 9.0 mph14.5 kmh 30.13 in1020.3 mb 0.00 in0.0 mm 0.00 in0.0 mm 0.03 in0.8 mm
12:04 PM 48.5°F9.2°C 36.1°F2.3°C 62% 12.0 mph NNW19.3 kmh NNW 12.0 mph19.3 kmh 30.13 in1020.3 mb 0.00 in0.0 mm 0.00 in0.0 mm 0.03 in0.8 mm
12:06 PM 48.5°F9.2°C 35.7°F2.1°C 61% 9.0 mph WNW14.5 kmh WNW 11.0 mph17.7 kmh 30.13 in1020.3 mb 0.00 in0.0 mm 0.00 in0.0 mm 0.03 in0.8 mm
12:08 PM 48.4°F9.1°C 35.6°F2.0°C 61% 14.0 mph WNW22.5 kmh WNW 14.0 mph22.5 kmh 30.13 in1020.3 mb 0.00 in0.0 mm 0.00 in0.0 mm 0.03 in0.8 mm
12:10 PM 48.4°F9.1°C 35.2°F1.8°C 60% 6.0 mph NW9.7 kmh NW 9.0 mph14.5 kmh 30.13 in1020.3 mb 0.00 in0.0 mm 0.00 in0.0 mm 0.03 in0.8 mm
12:12 PM 48.4°F9.1°C 35.6°F2.0°C 61% 3.0 mph N4.8 kmh N 13.0 mph20.9 kmh 30.13 in1020.3 mb 0.00 in0.0 mm 0.00 in0.0 mm 0.03 in0.8 mm
12:14 PM 48.3°F9.1°C 35.9°F2.2°C 62% 6.0 mph NW9.7 kmh NW 14.0 mph22.5 kmh 30.13 in1020.3 mb 0.00 in0.0 mm 0.00 in0.0 mm 0.03 in0.8 mm
12:16 PM 48.3°F9.1°C 35.9°F2.2°C 62% 3.0 mph WNW4.8 kmh WNW 3.0 mph4.8 kmh 30.13 in1020.3 mb 0.00 in0.0 mm 0.00 in0.0 mm 0.03 in0.8 mm
12:18 PM 48.3°F9.1°C 35.5°F1.9°C 61% 6.0 mph NW9.7 kmh NW 7.0 mph11.3 kmh 30.13 in1020.3 mb 0.00 in0.0 mm 0.00 in0.0 mm 0.03 in0.8 mm
12:20 PM 48.3°F9.1°C 35.5°F1.9°C 61% 2.0 mph N3.2 kmh N 4.0 mph6.4 kmh 30.13 in1020.3 mb 0.00 in0.0 mm 0.00 in0.0 mm 0.03 in0.8 mm
12:22 PM 48.4°F9.1°C 36.0°F2.2°C 62% 8.0 mph NW12.9 kmh NW 8.0 mph12.9 kmh 30.13 in1020.3 mb 0.00 in0.0 mm 0.00 in0.0 mm 0.03 in0.8 mm
12:24 PM 48.4°F9.1°C 35.6°F2.0°C 61% 4.0 mph NNW6.4 kmh NNW 4.0 mph6.4 kmh 30.13 in1020.3 mb 0.00 in0.0 mm 0.00 in0.0 mm 0.03 in0.8 mm
12:26 PM 48.4°F9.1°C 36.0°F2.2°C 62% 3.0 mph N4.8 kmh N 3.0 mph4.8 kmh 30.13 in1020.3 mb 0.00 in0.0 mm 0.00 in0.0 mm 0.03 in0.8 mm
12:28 PM 48.4°F9.1°C 35.6°F2.0°C 61% 3.0 mph WSW4.8 kmh WSW 3.0 mph4.8 kmh 30.13 in1020.3 mb 0.00 in0.0 mm 0.00 in0.0 mm 0.03 in0.8 mm
12:30 PM 48.4°F9.1°C 35.6°F2.0°C 61% 7.0 mph NW11.3 kmh NW 9.0 mph14.5 kmh 30.13 in1020.3 mb 0.00 in0.0 mm 0.00 in0.0 mm 0.03 in0.8 mm
12:32 PM 48.4°F9.1°C 35.2°F1.8°C 60% 4.0 mph NW6.4 kmh NW 4.0 mph6.4 kmh 30.13 in1020.3 mb 0.00 in0.0 mm 0.00 in0.0 mm 0.03 in0.8 mm
12:34 PM 48.4°F9.1°C 35.6°F2.0°C 61% 4.0 mph NNW6.4 kmh NNW 4.0 mph6.4 kmh 30.13 in1020.3 mb 0.00 in0.0 mm 0.00 in0.0 mm 0.03 in0.8 mm
12:36 PM 48.4°F9.1°C 35.6°F2.0°C 61% 4.0 mph NW6.4 kmh NW 4.0 mph6.4 kmh 30.13 in1020.3 mb 0.00 in0.0 mm 0.00 in0.0 mm 0.03 in0.8 mm
12:38 PM 48.4°F9.1°C 35.6°F2.0°C 61% Calm Calm 3.0 mph4.8 kmh 30.13 in1020.3 mb 0.00 in0.0 mm 0.00 in0.0 mm 0.03 in0.8 mm
12:40 PM 48.4°F9.1°C 36.0°F2.2°C 62% 3.0 mph WNW4.8 kmh WNW 5.0 mph8.0 kmh 30.13 in1020.3 mb 0.00 in0.0 mm 0.00 in0.0 mm 0.03 in0.8 mm
12:42 PM 48.5°F9.2°C 35.7°F2.1°C 61% 1.0 mph W1.6 kmh W 3.0 mph4.8 kmh 30.13 in1020.3 mb 0.00 in0.0 mm 0.00 in0.0 mm 0.03 in0.8 mm
12:44 PM 48.5°F9.2°C 36.1°F2.3°C 62% 2.0 mph NNW3.2 kmh NNW 7.0 mph11.3 kmh 30.13 in1020.3 mb 0.00 in0.0 mm 0.00 in0.0 mm 0.03 in0.8 mm
12:46 PM 48.5°F9.2°C 36.1°F2.3°C 62% 7.0 mph NNW11.3 kmh NNW 7.0 mph11.3 kmh 30.13 in1020.3 mb 0.00 in0.0 mm 0.00 in0.0 mm 0.03 in0.8 mm
12:48 PM 48.5°F9.2°C 35.7°F2.1°C 61% 13.0 mph NW20.9 kmh NW 13.0 mph20.9 kmh 30.14 in1020.7 mb 0.00 in0.0 mm 0.00 in0.0 mm 0.03 in0.8 mm
12:50 PM 48.5°F9.2°C 35.3°F1.8°C 60% 4.0 mph NW6.4 kmh NW 5.0 mph8.0 kmh 30.14 in1020.7 mb 0.00 in0.0 mm 0.00 in0.0 mm 0.03 in0.8 mm
12:52 PM 48.4°F9.1°C 35.2°F1.8°C 60% 4.0 mph NW6.4 kmh NW 5.0 mph8.0 kmh 30.14 in1020.7 mb 0.00 in0.0 mm 0.00 in0.0 mm 0.03 in0.8 mm
12:54 PM 48.4°F9.1°C 35.2°F1.8°C 60% 6.0 mph WNW9.7 kmh WNW 6.0 mph9.7 kmh 30.14 in1020.7 mb 0.00 in0.0 mm 0.00 in0.0 mm 0.03 in0.8 mm
12:56 PM 48.4°F9.1°C 34.8°F1.6°C 59% 14.0 mph NW22.5 kmh NW 16.0 mph25.7 kmh 30.14 in1020.7 mb 0.00 in0.0 mm 0.00 in0.0 mm 0.03 in0.8 mm
12:58 PM 48.3°F9.1°C 34.2°F1.2°C 58% 7.0 mph NW11.3 kmh NW 11.0 mph17.7 kmh 30.14 in1020.7 mb 0.00 in0.0 mm 0.00 in0.0 mm 0.03 in0.8 mm
01:00 PM 48.2°F9.0°C 34.1°F1.2°C 58% 10.0 mph W16.1 kmh W 14.0 mph22.5 kmh 30.14 in1020.7 mb 0.00 in0.0 mm 0.00 in0.0 mm 0.03 in0.8 mm
01:02 PM 48.2°F9.0°C 33.7°F0.9°C 57% 7.0 mph NNW11.3 kmh NNW 9.0 mph14.5 kmh 30.14 in1020.7 mb 0.00 in0.0 mm 0.00 in0.0 mm 0.03 in0.8 mm
01:04 PM 48.1°F8.9°C 34.0°F1.1°C 58% 5.0 mph W8.0 kmh W 10.0 mph16.1 kmh 30.14 in1020.7 mb 0.00 in0.0 mm 0.00 in0.0 mm 0.03 in0.8 mm
01:06 PM 48.1°F8.9°C 34.0°F1.1°C 58% 3.0 mph NW4.8 kmh NW 10.0 mph16.1 kmh 30.14 in1020.7 mb 0.00 in0.0 mm 0.00 in0.0 mm 0.03 in0.8 mm
01:08 PM 48.1°F8.9°C 34.0°F1.1°C 58% 9.0 mph NW14.5 kmh NW 9.0 mph14.5 kmh 30.14 in1020.7 mb 0.00 in0.0 mm 0.00 in0.0 mm 0.03 in0.8 mm
01:10 PM 48.1°F8.9°C 34.0°F1.1°C 58% 2.0 mph NNW3.2 kmh NNW 8.0 mph12.9 kmh 30.14 in1020.7 mb 0.00 in0.0 mm 0.00 in0.0 mm 0.03 in0.8 mm
01:12 PM 48.1°F8.9°C 34.0°F1.1°C 58% 2.0 mph N3.2 kmh N 3.0 mph4.8 kmh 30.14 in1020.7 mb 0.00 in0.0 mm 0.00 in0.0 mm 0.03 in0.8 mm
01:14 PM 48.2°F9.0°C 34.6°F1.4°C 59% Calm Calm 5.0 mph8.0 kmh 30.14 in1020.7 mb 0.00 in0.0 mm 0.00 in0.0 mm 0.03 in0.8 mm
01:16 PM 48.2°F9.0°C 34.1°F1.2°C 58% 3.0 mph NW4.8 kmh NW 3.0 mph4.8 kmh 30.14 in1020.7 mb 0.00 in0.0 mm 0.00 in0.0 mm 0.03 in0.8 mm
01:18 PM 48.3°F9.1°C 34.7°F1.5°C 59% 13.0 mph W20.9 kmh W 13.0 mph20.9 kmh 30.14 in1020.7 mb 0.00 in0.0 mm 0.00 in0.0 mm 0.03 in0.8 mm
01:20 PM 48.3°F9.1°C 33.8°F1.0°C 57% 5.0 mph NW8.0 kmh NW 15.0 mph24.1 kmh 30.14 in1020.7 mb 0.00 in0.0 mm 0.00 in0.0 mm 0.03 in0.8 mm
01:22 PM 48.3°F9.1°C 34.2°F1.2°C 58% 3.0 mph NNW4.8 kmh NNW 10.0 mph16.1 kmh 30.14 in1020.7 mb 0.00 in0.0 mm 0.00 in0.0 mm 0.03 in0.8 mm
01:24 PM 48.3°F9.1°C 34.2°F1.2°C 58% 7.0 mph NW11.3 kmh NW 7.0 mph11.3 kmh 30.14 in1020.7 mb 0.00 in0.0 mm 0.00 in0.0 mm 0.03 in0.8 mm
01:26 PM 48.2°F9.0°C 34.1°F1.2°C 58% 11.0 mph N17.7 kmh N 11.0 mph17.7 kmh 30.14 in1020.7 mb 0.00 in0.0 mm 0.00 in0.0 mm 0.03 in0.8 mm
01:28 PM 48.2°F9.0°C 34.1°F1.2°C 58% 3.0 mph N4.8 kmh N 6.0 mph9.7 kmh 30.14 in1020.7 mb 0.00 in0.0 mm 0.00 in0.0 mm 0.03 in0.8 mm
01:32 PM 48.2°F9.0°C 34.1°F1.2°C 58% 3.0 mph WNW4.8 kmh WNW 6.0 mph9.7 kmh 30.14 in1020.7 mb 0.00 in0.0 mm 0.00 in0.0 mm 0.03 in0.8 mm
01:34 PM 48.1°F8.9°C 33.6°F0.9°C 57% 3.0 mph WNW4.8 kmh WNW 17.0 mph27.4 kmh 30.14 in1020.7 mb 0.00 in0.0 mm 0.00 in0.0 mm 0.03 in0.8 mm
01:36 PM 48.1°F8.9°C 34.0°F1.1°C 58% 7.0 mph NW11.3 kmh NW 7.0 mph11.3 kmh 30.14 in1020.7 mb 0.00 in0.0 mm 0.00 in0.0 mm 0.03 in0.8 mm
01:38 PM 48.0°F8.9°C 33.9°F1.1°C 58% 2.0 mph NW3.2 kmh NW 3.0 mph4.8 kmh 30.14 in1020.7 mb 0.00 in0.0 mm 0.00 in0.0 mm 0.03 in0.8 mm
01:40 PM 48.0°F8.9°C 33.9°F1.1°C 58% 3.0 mph WNW4.8 kmh WNW 6.0 mph9.7 kmh 30.15 in1021.0 mb 0.00 in0.0 mm 0.00 in0.0 mm 0.03 in0.8 mm
01:42 PM 47.9°F8.8°C 33.9°F1.1°C 58% 9.0 mph NW14.5 kmh NW 10.0 mph16.1 kmh 30.15 in1021.0 mb 0.00 in0.0 mm 0.00 in0.0 mm 0.03 in0.8 mm
01:44 PM 47.9°F8.8°C 33.4°F0.8°C 57% 11.0 mph N17.7 kmh N 11.0 mph17.7 kmh 30.15 in1021.0 mb 0.00 in0.0 mm 0.00 in0.0 mm 0.03 in0.8 mm
01:46 PM 48.0°F8.9°C 33.5°F0.8°C 57% 3.0 mph NW4.8 kmh NW 8.0 mph12.9 kmh 30.15 in1021.0 mb 0.00 in0.0 mm 0.00 in0.0 mm 0.03 in0.8 mm
01:48 PM 48.0°F8.9°C 33.5°F0.8°C 57% 2.0 mph W3.2 kmh W 6.0 mph9.7 kmh 30.14 in1020.7 mb 0.00 in0.0 mm 0.00 in0.0 mm 0.03 in0.8 mm
01:50 PM 48.0°F8.9°C 33.5°F0.8°C 57% 4.0 mph WNW6.4 kmh WNW 16.0 mph25.7 kmh 30.15 in1021.0 mb 0.00 in0.0 mm 0.00 in0.0 mm 0.03 in0.8 mm
01:52 PM 48.1°F8.9°C 33.6°F0.9°C 57% 11.0 mph NW17.7 kmh NW 11.0 mph17.7 kmh 30.15 in1021.0 mb 0.00 in0.0 mm 0.00 in0.0 mm 0.03 in0.8 mm
01:54 PM 48.1°F8.9°C 33.6°F0.9°C 57% 9.0 mph NW14.5 kmh NW 9.0 mph14.5 kmh 30.15 in1021.0 mb 0.00 in0.0 mm 0.00 in0.0 mm 0.03 in0.8 mm
01:56 PM 48.1°F8.9°C 33.2°F0.7°C 56% 4.0 mph NW6.4 kmh NW 4.0 mph6.4 kmh 30.15 in1021.0 mb 0.00 in0.0 mm 0.00 in0.0 mm 0.03 in0.8 mm
01:58 PM 48.0°F8.9°C 33.1°F0.6°C 56% 8.0 mph NW12.9 kmh NW 8.0 mph12.9 kmh 30.15 in1021.0 mb 0.00 in0.0 mm 0.00 in0.0 mm 0.03 in0.8 mm
02:00 PM 48.0°F8.9°C 33.5°F0.8°C 57% 3.0 mph WNW4.8 kmh WNW 9.0 mph14.5 kmh 30.15 in1021.0 mb 0.00 in0.0 mm 0.00 in0.0 mm 0.03 in0.8 mm
02:02 PM 47.9°F8.8°C 33.4°F0.8°C 57% 3.0 mph N4.8 kmh N 7.0 mph11.3 kmh 30.15 in1021.0 mb 0.00 in0.0 mm 0.00 in0.0 mm 0.03 in0.8 mm
02:04 PM 47.8°F8.8°C 33.3°F0.7°C 57% 5.0 mph NW8.0 kmh NW 9.0 mph14.5 kmh 30.15 in1021.0 mb 0.00 in0.0 mm 0.00 in0.0 mm 0.03 in0.8 mm
02:06 PM 47.7°F8.7°C 33.2°F0.7°C 57% 3.0 mph NNW4.8 kmh NNW 4.0 mph6.4 kmh 30.15 in1021.0 mb 0.00 in0.0 mm 0.00 in0.0 mm 0.03 in0.8 mm
02:08 PM 47.6°F8.7°C 33.6°F0.9°C 58% 11.0 mph NNE17.7 kmh NNE 11.0 mph17.7 kmh 30.15 in1021.0 mb 0.00 in0.0 mm 0.00 in0.0 mm 0.03 in0.8 mm
02:10 PM 47.4°F8.6°C 33.4°F0.8°C 58% 10.0 mph NW16.1 kmh NW 11.0 mph17.7 kmh 30.15 in1021.0 mb 0.00 in0.0 mm 0.00 in0.0 mm 0.03 in0.8 mm
02:12 PM 47.3°F8.5°C 33.3°F0.7°C 58% 11.0 mph NW17.7 kmh NW 11.0 mph17.7 kmh 30.15 in1021.0 mb 0.00 in0.0 mm 0.00 in0.0 mm 0.03 in0.8 mm
02:14 PM 47.3°F8.5°C 33.3°F0.7°C 58% 9.0 mph NW14.5 kmh NW 13.0 mph20.9 kmh 30.15 in1021.0 mb 0.00 in0.0 mm 0.00 in0.0 mm 0.03 in0.8 mm
02:18 PM 47.2°F8.4°C 33.2°F0.7°C 58% 5.0 mph NW8.0 kmh NW 6.0 mph9.7 kmh 30.15 in1021.0 mb 0.00 in0.0 mm 0.00 in0.0 mm 0.03 in0.8 mm
02:20 PM 47.2°F8.4°C 33.2°F0.7°C 58% 6.0 mph WNW9.7 kmh WNW 6.0 mph9.7 kmh 30.15 in1021.0 mb 0.00 in0.0 mm 0.00 in0.0 mm 0.03 in0.8 mm
02:22 PM 47.2°F8.4°C 33.2°F0.7°C 58% 3.0 mph WNW4.8 kmh WNW 4.0 mph6.4 kmh 30.15 in1021.0 mb 0.00 in0.0 mm 0.00 in0.0 mm 0.03 in0.8 mm
02:24 PM 47.2°F8.4°C 33.2°F0.7°C 58% 3.0 mph W4.8 kmh W 4.0 mph6.4 kmh 30.15 in1021.0 mb 0.00 in0.0 mm 0.00 in0.0 mm 0.03 in0.8 mm
02:26 PM 47.2°F8.4°C 33.2°F0.7°C 58% 4.0 mph NW6.4 kmh NW 4.0 mph6.4 kmh 30.15 in1021.0 mb 0.00 in0.0 mm 0.00 in0.0 mm 0.03 in0.8 mm
02:28 PM 47.1°F8.4°C 33.5°F0.8°C 59% 4.0 mph N6.4 kmh N 6.0 mph9.7 kmh 30.15 in1021.0 mb 0.00 in0.0 mm 0.00 in0.0 mm 0.03 in0.8 mm
02:30 PM 47.1°F8.4°C 33.1°F0.6°C 58% 5.0 mph NW8.0 kmh NW 11.0 mph17.7 kmh 30.15 in1021.0 mb 0.00 in0.0 mm 0.00 in0.0 mm 0.03 in0.8 mm
02:32 PM 47.1°F8.4°C 33.9°F1.1°C 60% 7.0 mph NNW11.3 kmh NNW 7.0 mph11.3 kmh 30.15 in1021.0 mb 0.00 in0.0 mm 0.00 in0.0 mm 0.03 in0.8 mm
02:34 PM 47.1°F8.4°C 33.5°F0.8°C 59% 7.0 mph NW11.3 kmh NW 10.0 mph16.1 kmh 30.15 in1021.0 mb 0.00 in0.0 mm 0.00 in0.0 mm 0.03 in0.8 mm
02:36 PM 47.0°F8.3°C 33.4°F0.8°C 59% 10.0 mph NW16.1 kmh NW 10.0 mph16.1 kmh 30.15 in1021.0 mb 0.00 in0.0 mm 0.00 in0.0 mm 0.03 in0.8 mm
02:38 PM 47.0°F8.3°C 33.4°F0.8°C 59% 10.0 mph NW16.1 kmh NW 10.0 mph16.1 kmh 30.16 in1021.3 mb 0.00 in0.0 mm 0.00 in0.0 mm 0.03 in0.8 mm
02:40 PM 47.0°F8.3°C 33.4°F0.8°C 59% 5.0 mph NW8.0 kmh NW 6.0 mph9.7 kmh 30.16 in1021.3 mb 0.00 in0.0 mm 0.00 in0.0 mm 0.03 in0.8 mm
02:42 PM 46.9°F8.3°C 33.3°F0.7°C 59% 5.0 mph NW8.0 kmh NW 6.0 mph9.7 kmh 30.15 in1021.0 mb 0.00 in0.0 mm 0.00 in0.0 mm 0.03 in0.8 mm
02:44 PM 46.9°F8.3°C 33.3°F0.7°C 59% 2.0 mph NW3.2 kmh NW 4.0 mph6.4 kmh 30.15 in1021.0 mb 0.00 in0.0 mm 0.00 in0.0 mm 0.03 in0.8 mm
02:46 PM 46.9°F8.3°C 33.3°F0.7°C 59% 2.0 mph NNE3.2 kmh NNE 2.0 mph3.2 kmh 30.15 in1021.0 mb 0.00 in0.0 mm 0.00 in0.0 mm 0.03 in0.8 mm
02:48 PM 46.9°F8.3°C 33.8°F1.0°C 60% 4.0 mph NNE6.4 kmh NNE 11.0 mph17.7 kmh 30.15 in1021.0 mb 0.00 in0.0 mm 0.00 in0.0 mm 0.03 in0.8 mm
02:50 PM 46.9°F8.3°C 33.8°F1.0°C 60% Calm Calm 6.0 mph9.7 kmh 30.15 in1021.0 mb 0.00 in0.0 mm 0.00 in0.0 mm 0.03 in0.8 mm
02:52 PM 46.9°F8.3°C 33.3°F0.7°C 59% Calm Calm -- 30.16 in1021.3 mb 0.00 in0.0 mm 0.00 in0.0 mm 0.03 in0.8 mm
02:54 PM 46.9°F8.3°C 33.8°F1.0°C 60% 6.0 mph NW9.7 kmh NW 6.0 mph9.7 kmh 30.16 in1021.3 mb 0.00 in0.0 mm 0.00 in0.0 mm 0.03 in0.8 mm
02:56 PM 46.9°F8.3°C 33.8°F1.0°C 60% 3.0 mph NW4.8 kmh NW 3.0 mph4.8 kmh 30.16 in1021.3 mb 0.01 in0.3 mm 0.30 in7.6 mm 0.04 in1.0 mm
02:58 PM 47.0°F8.3°C 33.9°F1.1°C 60% 5.0 mph NNW8.0 kmh NNW 7.0 mph11.3 kmh 30.16 in1021.3 mb 0.01 in0.3 mm 0.00 in0.0 mm 0.04 in1.0 mm
03:00 PM 47.0°F8.3°C 33.9°F1.1°C 60% 5.0 mph N8.0 kmh N 5.0 mph8.0 kmh 30.16 in1021.3 mb 0.01 in0.3 mm 0.00 in0.0 mm 0.04 in1.0 mm
03:02 PM 47.1°F8.4°C 33.9°F1.1°C 60% 3.0 mph NNW4.8 kmh NNW 3.0 mph4.8 kmh 30.16 in1021.3 mb 0.01 in0.3 mm 0.00 in0.0 mm 0.04 in1.0 mm
03:04 PM 47.2°F8.4°C 34.5°F1.4°C 61% 3.0 mph NNW4.8 kmh NNW 3.0 mph4.8 kmh 30.16 in1021.3 mb 0.01 in0.3 mm 0.00 in0.0 mm 0.04 in1.0 mm
03:06 PM 47.2°F8.4°C 34.5°F1.4°C 61% 3.0 mph NNW4.8 kmh NNW 5.0 mph8.0 kmh 30.16 in1021.3 mb 0.01 in0.3 mm 0.00 in0.0 mm 0.04 in1.0 mm
03:08 PM 47.2°F8.4°C 34.5°F1.4°C 61% 4.0 mph NNE6.4 kmh NNE 4.0 mph6.4 kmh 30.16 in1021.3 mb 0.01 in0.3 mm 0.00 in0.0 mm 0.04 in1.0 mm
03:10 PM 47.3°F8.5°C 34.1°F1.2°C 60% 10.0 mph NW16.1 kmh NW 10.0 mph16.1 kmh 30.16 in1021.3 mb 0.01 in0.3 mm 0.00 in0.0 mm 0.04 in1.0 mm
03:12 PM 47.3°F8.5°C 33.7°F0.9°C 59% 6.0 mph NW9.7 kmh NW 6.0 mph9.7 kmh 30.17 in1021.7 mb 0.01 in0.3 mm 0.00 in0.0 mm 0.04 in1.0 mm
03:14 PM 47.3°F8.5°C 34.1°F1.2°C 60% 8.0 mph NNW12.9 kmh NNW 8.0 mph12.9 kmh 30.17 in1021.7 mb 0.01 in0.3 mm 0.00 in0.0 mm 0.04 in1.0 mm
03:16 PM 47.3°F8.5°C 34.1°F1.2°C 60% 5.0 mph NW8.0 kmh NW 5.0 mph8.0 kmh 30.17 in1021.7 mb 0.01 in0.3 mm 0.00 in0.0 mm 0.04 in1.0 mm
03:18 PM 47.3°F8.5°C 33.7°F0.9°C 59% 6.0 mph NNW9.7 kmh NNW 6.0 mph9.7 kmh 30.17 in1021.7 mb 0.01 in0.3 mm 0.00 in0.0 mm 0.04 in1.0 mm
03:20 PM 47.3°F8.5°C 33.7°F0.9°C 59% 2.0 mph NNW3.2 kmh NNW 3.0 mph4.8 kmh 30.17 in1021.7 mb 0.01 in0.3 mm 0.00 in0.0 mm 0.04 in1.0 mm
03:22 PM 47.3°F8.5°C 34.1°F1.2°C 60% 5.0 mph N8.0 kmh N 5.0 mph8.0 kmh 30.16 in1021.3 mb 0.01 in0.3 mm 0.00 in0.0 mm 0.04 in1.0 mm
03:24 PM 47.3°F8.5°C 33.7°F0.9°C 59% 7.0 mph NNW11.3 kmh NNW 12.0 mph19.3 kmh 30.16 in1021.3 mb 0.01 in0.3 mm 0.00 in0.0 mm 0.04 in1.0 mm
03:26 PM 47.3°F8.5°C 33.7°F0.9°C 59% 2.0 mph N3.2 kmh N 4.0 mph6.4 kmh 30.16 in1021.3 mb 0.01 in0.3 mm 0.00 in0.0 mm 0.04 in1.0 mm
03:28 PM 47.3°F8.5°C 33.7°F0.9°C 59% 1.0 mph NW1.6 kmh NW 3.0 mph4.8 kmh 30.17 in1021.7 mb 0.01 in0.3 mm 0.00 in0.0 mm 0.04 in1.0 mm
03:30 PM 47.3°F8.5°C 33.7°F0.9°C 59% 10.0 mph NNW16.1 kmh NNW 10.0 mph16.1 kmh 30.16 in1021.3 mb 0.01 in0.3 mm 0.00 in0.0 mm 0.04 in1.0 mm
03:32 PM 47.2°F8.4°C 33.2°F0.7°C 58% 5.0 mph NNW8.0 kmh NNW 5.0 mph8.0 kmh 30.16 in1021.3 mb 0.01 in0.3 mm 0.00 in0.0 mm 0.04 in1.0 mm
03:34 PM 47.2°F8.4°C 33.2°F0.7°C 58% 2.0 mph NNW3.2 kmh NNW 3.0 mph4.8 kmh 30.16 in1021.3 mb 0.01 in0.3 mm 0.00 in0.0 mm 0.04 in1.0 mm
03:36 PM 47.2°F8.4°C 33.2°F0.7°C 58% 3.0 mph NW4.8 kmh NW 4.0 mph6.4 kmh 30.16 in1021.3 mb 0.01 in0.3 mm 0.00 in0.0 mm 0.04 in1.0 mm
03:38 PM 47.1°F8.4°C 33.1°F0.6°C 58% 1.0 mph WNW1.6 kmh WNW 6.0 mph9.7 kmh 30.16 in1021.3 mb 0.01 in0.3 mm 0.00 in0.0 mm 0.04 in1.0 mm
03:40 PM 47.1°F8.4°C 33.1°F0.6°C 58% 2.0 mph WNW3.2 kmh WNW 3.0 mph4.8 kmh 30.16 in1021.3 mb 0.01 in0.3 mm 0.00 in0.0 mm 0.04 in1.0 mm
03:42 PM 47.1°F8.4°C 33.1°F0.6°C 58% 3.0 mph NW4.8 kmh NW 4.0 mph6.4 kmh 30.16 in1021.3 mb 0.01 in0.3 mm 0.00 in0.0 mm 0.04 in1.0 mm
03:44 PM 47.1°F8.4°C 33.5°F0.8°C 59% 2.0 mph N3.2 kmh N 9.0 mph14.5 kmh 30.16 in1021.3 mb 0.01 in0.3 mm 0.00 in0.0 mm 0.04 in1.0 mm
03:46 PM 47.0°F8.3°C 33.0°F0.6°C 58% 6.0 mph NW9.7 kmh NW 9.0 mph14.5 kmh 30.17 in1021.7 mb 0.01 in0.3 mm 0.00 in0.0 mm 0.04 in1.0 mm
03:48 PM 47.0°F8.3°C 33.0°F0.6°C 58% 3.0 mph NNW4.8 kmh NNW 4.0 mph6.4 kmh 30.17 in1021.7 mb 0.01 in0.3 mm 0.00 in0.0 mm 0.04 in1.0 mm
03:50 PM 47.0°F8.3°C 33.0°F0.6°C 58% 4.0 mph N6.4 kmh N 10.0 mph16.1 kmh 30.17 in1021.7 mb 0.01 in0.3 mm 0.00 in0.0 mm 0.04 in1.0 mm
03:52 PM 46.9°F8.3°C 32.9°F0.5°C 58% 5.0 mph NW8.0 kmh NW 5.0 mph8.0 kmh 30.17 in1021.7 mb 0.01 in0.3 mm 0.00 in0.0 mm 0.04 in1.0 mm
03:54 PM 46.9°F8.3°C 32.9°F0.5°C 58% 3.0 mph N4.8 kmh N 4.0 mph6.4 kmh 30.17 in1021.7 mb 0.01 in0.3 mm 0.00 in0.0 mm 0.04 in1.0 mm
03:56 PM 46.8°F8.2°C 32.8°F0.4°C 58% 4.0 mph NW6.4 kmh NW 5.0 mph8.0 kmh 30.17 in1021.7 mb 0.00 in0.0 mm 0.00 in0.0 mm 0.04 in1.0 mm
03:58 PM 46.8°F8.2°C 32.8°F0.4°C 58% 3.0 mph NW4.8 kmh NW 4.0 mph6.4 kmh 30.17 in1021.7 mb 0.00 in0.0 mm 0.00 in0.0 mm 0.04 in1.0 mm
04:00 PM 46.8°F8.2°C 32.8°F0.4°C 58% 2.0 mph WNW3.2 kmh WNW 3.0 mph4.8 kmh 30.17 in1021.7 mb 0.00 in0.0 mm 0.00 in0.0 mm 0.04 in1.0 mm
04:02 PM 46.8°F8.2°C 32.8°F0.4°C 58% 2.0 mph NW3.2 kmh NW 3.0 mph4.8 kmh 30.17 in1021.7 mb 0.00 in0.0 mm 0.00 in0.0 mm 0.04 in1.0 mm
04:04 PM 46.7°F8.2°C 32.7°F0.4°C 58% 2.0 mph NW3.2 kmh NW 2.0 mph3.2 kmh 30.17 in1021.7 mb 0.00 in0.0 mm 0.00 in0.0 mm 0.04 in1.0 mm
04:06 PM 46.7°F8.2°C 33.2°F0.7°C 59% Calm Calm -- 30.17 in1021.7 mb 0.00 in0.0 mm 0.00 in0.0 mm 0.04 in1.0 mm
04:08 PM 46.7°F8.2°C 32.7°F0.4°C 58% 2.0 mph N3.2 kmh N 5.0 mph8.0 kmh 30.17 in1021.7 mb 0.00 in0.0 mm 0.00 in0.0 mm 0.04 in1.0 mm
04:10 PM 46.6°F8.1°C 33.1°F0.6°C 59% 3.0 mph N4.8 kmh N 4.0 mph6.4 kmh 30.17 in1021.7 mb 0.00 in0.0 mm 0.00 in0.0 mm 0.04 in1.0 mm
04:12 PM 46.6°F8.1°C 33.1°F0.6°C 59% 2.0 mph W3.2 kmh W 6.0 mph9.7 kmh 30.17 in1021.7 mb 0.00 in0.0 mm 0.00 in0.0 mm 0.04 in1.0 mm
04:14 PM 46.5°F8.1°C 33.0°F0.6°C 59% Calm Calm 1.0 mph1.6 kmh 30.17 in1021.7 mb 0.00 in0.0 mm 0.00 in0.0 mm 0.04 in1.0 mm
04:16 PM 46.5°F8.1°C 33.0°F0.6°C 59% 3.0 mph NNW4.8 kmh NNW 3.0 mph4.8 kmh 30.17 in1021.7 mb 0.00 in0.0 mm 0.00 in0.0 mm 0.04 in1.0 mm
04:20 PM 46.4°F8.0°C 32.9°F0.5°C 59% Calm Calm -- 30.17 in1021.7 mb 0.00 in0.0 mm 0.00 in0.0 mm 0.04 in1.0 mm
04:22 PM 46.3°F7.9°C 32.8°F0.4°C 59% 5.0 mph NNW8.0 kmh NNW 5.0 mph8.0 kmh 30.17 in1021.7 mb 0.00 in0.0 mm 0.00 in0.0 mm 0.04 in1.0 mm
04:24 PM 46.2°F7.9°C 32.7°F0.4°C 59% 4.0 mph NNW6.4 kmh NNW 4.0 mph6.4 kmh 30.17 in1021.7 mb 0.00 in0.0 mm 0.00 in0.0 mm 0.04 in1.0 mm
04:26 PM 46.1°F7.8°C 32.6°F0.3°C 59% 1.0 mph NW1.6 kmh NW 4.0 mph6.4 kmh 30.17 in1021.7 mb 0.00 in0.0 mm 0.00 in0.0 mm 0.04 in1.0 mm
04:28 PM 46.1°F7.8°C 32.6°F0.3°C 59% 1.0 mph NW1.6 kmh NW 3.0 mph4.8 kmh 30.18 in1022.0 mb 0.00 in0.0 mm 0.00 in0.0 mm 0.04 in1.0 mm
04:30 PM 46.1°F7.8°C 32.6°F0.3°C 59% Calm Calm 2.0 mph3.2 kmh 30.18 in1022.0 mb 0.00 in0.0 mm 0.00 in0.0 mm 0.04 in1.0 mm
04:32 PM 46.0°F7.8°C 32.5°F0.3°C 59% 1.0 mph NW1.6 kmh NW 2.0 mph3.2 kmh 30.18 in1022.0 mb 0.00 in0.0 mm 0.00 in0.0 mm 0.04 in1.0 mm
04:34 PM 45.9°F7.7°C 32.8°F0.4°C 60% Calm Calm 1.0 mph1.6 kmh 30.18 in1022.0 mb 0.00 in0.0 mm 0.00 in0.0 mm 0.04 in1.0 mm
04:36 PM 45.8°F7.7°C 32.7°F0.4°C 60% 5.0 mph NW8.0 kmh NW 5.0 mph8.0 kmh 30.18 in1022.0 mb 0.00 in0.0 mm 0.00 in0.0 mm 0.04 in1.0 mm
04:38 PM 45.8°F7.7°C 32.7°F0.4°C 60% 2.0 mph WNW3.2 kmh WNW 2.0 mph3.2 kmh 30.18 in1022.0 mb 0.00 in0.0 mm 0.00 in0.0 mm 0.04 in1.0 mm
04:40 PM 45.7°F7.6°C 32.6°F0.3°C 60% 2.0 mph WNW3.2 kmh WNW 2.0 mph3.2 kmh 30.19 in1022.4 mb 0.00 in0.0 mm 0.00 in0.0 mm 0.04 in1.0 mm
04:42 PM 45.6°F7.6°C 32.5°F0.3°C 60% 1.0 mph WNW1.6 kmh WNW 1.0 mph1.6 kmh 30.18 in1022.0 mb 0.00 in0.0 mm 0.00 in0.0 mm 0.04 in1.0 mm
04:44 PM 45.5°F7.5°C 32.4°F0.2°C 60% Calm Calm 1.0 mph1.6 kmh 30.18 in1022.0 mb 0.00 in0.0 mm 0.00 in0.0 mm 0.04 in1.0 mm
04:46 PM 45.5°F7.5°C 32.4°F0.2°C 60% Calm Calm -- 30.18 in1022.0 mb 0.00 in0.0 mm 0.00 in0.0 mm 0.04 in1.0 mm
04:48 PM 45.4°F7.4°C 32.3°F0.2°C 60% 2.0 mph WNW3.2 kmh WNW 2.0 mph3.2 kmh 30.18 in1022.0 mb 0.00 in0.0 mm 0.00 in0.0 mm 0.04 in1.0 mm
04:50 PM 45.4°F7.4°C 32.3°F0.2°C 60% 1.0 mph WNW1.6 kmh WNW 2.0 mph3.2 kmh 30.19 in1022.4 mb 0.00 in0.0 mm 0.00 in0.0 mm 0.04 in1.0 mm
04:52 PM 45.3°F7.4°C 32.3°F0.2°C 60% Calm Calm 1.0 mph1.6 kmh 30.19 in1022.4 mb 0.00 in0.0 mm 0.00 in0.0 mm 0.04 in1.0 mm
04:54 PM 45.2°F7.3°C 32.2°F0.1°C 60% Calm Calm -- 30.19 in1022.4 mb 0.00 in0.0 mm 0.00 in0.0 mm 0.04 in1.0 mm
04:56 PM 45.1°F7.3°C 32.1°F0.1°C 60% Calm Calm -- 30.19 in1022.4 mb 0.00 in0.0 mm 0.00 in0.0 mm 0.04 in1.0 mm
04:58 PM 45.1°F7.3°C 32.1°F0.1°C 60% Calm Calm -- 30.19 in1022.4 mb 0.00 in0.0 mm 0.00 in0.0 mm 0.04 in1.0 mm
05:00 PM 45.0°F7.2°C 32.0°F0.0°C 60% Calm Calm 2.0 mph3.2 kmh 30.19 in1022.4 mb 0.00 in0.0 mm 0.00 in0.0 mm 0.04 in1.0 mm
05:02 PM 44.9°F7.2°C 31.9°F-0.1°C 60% 2.0 mph WNW3.2 kmh WNW 2.0 mph3.2 kmh 30.19 in1022.4 mb 0.00 in0.0 mm 0.00 in0.0 mm 0.04 in1.0 mm
05:04 PM 44.8°F7.1°C 32.2°F0.1°C 61% 3.0 mph WNW4.8 kmh WNW 3.0 mph4.8 kmh 30.19 in1022.4 mb 0.00 in0.0 mm 0.00 in0.0 mm 0.04 in1.0 mm
05:06 PM 44.7°F7.1°C 32.1°F0.1°C 61% 2.0 mph WNW3.2 kmh WNW 2.0 mph3.2 kmh 30.19 in1022.4 mb 0.00 in0.0 mm 0.00 in0.0 mm 0.04 in1.0 mm
05:08 PM 44.6°F7.0°C 32.0°F0.0°C 61% 1.0 mph WNW1.6 kmh WNW 1.0 mph1.6 kmh 30.19 in1022.4 mb 0.00 in0.0 mm 0.00 in0.0 mm 0.04 in1.0 mm
05:10 PM 44.5°F6.9°C 32.3°F0.2°C 62% 2.0 mph WNW3.2 kmh WNW 2.0 mph3.2 kmh 30.20 in1022.7 mb 0.00 in0.0 mm 0.00 in0.0 mm 0.04 in1.0 mm
05:12 PM 44.4°F6.9°C 32.2°F0.1°C 62% 2.0 mph WNW3.2 kmh WNW 3.0 mph4.8 kmh 30.20 in1022.7 mb 0.00 in0.0 mm 0.00 in0.0 mm 0.04 in1.0 mm
05:14 PM 44.3°F6.8°C 32.1°F0.1°C 62% 2.0 mph WNW3.2 kmh WNW 3.0 mph4.8 kmh 30.20 in1022.7 mb 0.00 in0.0 mm 0.00 in0.0 mm 0.04 in1.0 mm
05:16 PM 44.2°F6.8°C 32.4°F0.2°C 63% 3.0 mph WNW4.8 kmh WNW 5.0 mph8.0 kmh 30.20 in1022.7 mb 0.00 in0.0 mm 0.00 in0.0 mm 0.04 in1.0 mm
05:20 PM 44.0°F6.7°C 31.8°F-0.1°C 62% 6.0 mph W9.7 kmh W 6.0 mph9.7 kmh 30.20 in1022.7 mb 0.00 in0.0 mm 0.00 in0.0 mm 0.04 in1.0 mm
05:22 PM 43.9°F6.6°C 32.1°F0.1°C 63% 3.0 mph W4.8 kmh W 3.0 mph4.8 kmh 30.20 in1022.7 mb 0.00 in0.0 mm 0.00 in0.0 mm 0.04 in1.0 mm
05:24 PM 43.8°F6.6°C 32.0°F0.0°C 63% 1.0 mph WNW1.6 kmh WNW 2.0 mph3.2 kmh 30.20 in1022.7 mb 0.00 in0.0 mm 0.00 in0.0 mm 0.04 in1.0 mm
05:26 PM 43.8°F6.6°C 32.0°F0.0°C 63% 1.0 mph WNW1.6 kmh WNW 3.0 mph4.8 kmh 30.20 in1022.7 mb 0.00 in0.0 mm 0.00 in0.0 mm 0.04 in1.0 mm
05:28 PM 43.7°F6.5°C 32.0°F0.0°C 63% 2.0 mph W3.2 kmh W 3.0 mph4.8 kmh 30.20 in1022.7 mb 0.00 in0.0 mm 0.00 in0.0 mm 0.04 in1.0 mm
05:30 PM 43.7°F6.5°C 32.0°F0.0°C 63% 2.0 mph NW3.2 kmh NW 5.0 mph8.0 kmh 30.20 in1022.7 mb 0.00 in0.0 mm 0.00 in0.0 mm 0.04 in1.0 mm
05:32 PM 43.7°F6.5°C 32.0°F0.0°C 63% 3.0 mph WNW4.8 kmh WNW 3.0 mph4.8 kmh 30.20 in1022.7 mb 0.00 in0.0 mm 0.00 in0.0 mm 0.04 in1.0 mm
05:34 PM 43.7°F6.5°C 32.0°F0.0°C 63% 2.0 mph W3.2 kmh W 3.0 mph4.8 kmh 30.20 in1022.7 mb 0.00 in0.0 mm 0.00 in0.0 mm 0.04 in1.0 mm
05:36 PM 43.7°F6.5°C 32.0°F0.0°C 63% 5.0 mph NW8.0 kmh NW 5.0 mph8.0 kmh 30.21 in1023.0 mb 0.00 in0.0 mm 0.00 in0.0 mm 0.04 in1.0 mm
05:38 PM 43.6°F6.4°C 31.9°F-0.1°C 63% 1.0 mph NW1.6 kmh NW 1.0 mph1.6 kmh 30.21 in1023.0 mb 0.00 in0.0 mm 0.00 in0.0 mm 0.04 in1.0 mm
05:40 PM 43.6°F6.4°C 31.9°F-0.1°C 63% 2.0 mph NW3.2 kmh NW 3.0 mph4.8 kmh 30.21 in1023.0 mb 0.00 in0.0 mm 0.00 in0.0 mm 0.04 in1.0 mm
05:42 PM 43.6°F6.4°C 31.9°F-0.1°C 63% Calm Calm -- 30.21 in1023.0 mb 0.00 in0.0 mm 0.00 in0.0 mm 0.04 in1.0 mm
05:44 PM 43.6°F6.4°C 31.9°F-0.1°C 63% 7.0 mph W11.3 kmh W 7.0 mph11.3 kmh 30.21 in1023.0 mb 0.00 in0.0 mm 0.00 in0.0 mm 0.04 in1.0 mm
05:46 PM 43.6°F6.4°C 31.9°F-0.1°C 63% 3.0 mph NW4.8 kmh NW 4.0 mph6.4 kmh 30.21 in1023.0 mb 0.00 in0.0 mm 0.00 in0.0 mm 0.04 in1.0 mm
05:48 PM 43.6°F6.4°C 31.9°F-0.1°C 63% 5.0 mph WNW8.0 kmh WNW 5.0 mph8.0 kmh 30.21 in1023.0 mb 0.00 in0.0 mm 0.00 in0.0 mm 0.04 in1.0 mm
05:50 PM 43.5°F6.4°C 31.8°F-0.1°C 63% Calm Calm 5.0 mph8.0 kmh 30.21 in1023.0 mb 0.00 in0.0 mm 0.00 in0.0 mm 0.04 in1.0 mm
05:52 PM 43.5°F6.4°C 31.8°F-0.1°C 63% 2.0 mph W3.2 kmh W 2.0 mph3.2 kmh 30.21 in1023.0 mb 0.00 in0.0 mm 0.00 in0.0 mm 0.04 in1.0 mm
05:54 PM 43.5°F6.4°C 31.8°F-0.1°C 63% 4.0 mph WNW6.4 kmh WNW 12.0 mph19.3 kmh 30.21 in1023.0 mb 0.00 in0.0 mm 0.00 in0.0 mm 0.04 in1.0 mm
05:56 PM 43.4°F6.3°C 31.7°F-0.2°C 63% 4.0 mph WNW6.4 kmh WNW 5.0 mph8.0 kmh 30.21 in1023.0 mb 0.00 in0.0 mm 0.00 in0.0 mm 0.04 in1.0 mm
05:58 PM 43.4°F6.3°C 31.7°F-0.2°C 63% 4.0 mph WNW6.4 kmh WNW 8.0 mph12.9 kmh 30.21 in1023.0 mb 0.00 in0.0 mm 0.00 in0.0 mm 0.04 in1.0 mm
06:00 PM 43.4°F6.3°C 31.7°F-0.2°C 63% 9.0 mph WNW14.5 kmh WNW 9.0 mph14.5 kmh 30.22 in1023.4 mb 0.00 in0.0 mm 0.00 in0.0 mm 0.04 in1.0 mm
06:02 PM 43.4°F6.3°C 31.7°F-0.2°C 63% 5.0 mph NW8.0 kmh NW 8.0 mph12.9 kmh 30.21 in1023.0 mb 0.00 in0.0 mm 0.00 in0.0 mm 0.04 in1.0 mm
06:04 PM 43.4°F6.3°C 31.7°F-0.2°C 63% 8.0 mph NW12.9 kmh NW 8.0 mph12.9 kmh 30.22 in1023.4 mb 0.00 in0.0 mm 0.00 in0.0 mm 0.04 in1.0 mm
06:06 PM 43.4°F6.3°C 31.7°F-0.2°C 63% 3.0 mph NW4.8 kmh NW 4.0 mph6.4 kmh 30.22 in1023.4 mb 0.00 in0.0 mm 0.00 in0.0 mm 0.04 in1.0 mm
06:08 PM 43.3°F6.3°C 31.6°F-0.2°C 63% 5.0 mph NW8.0 kmh NW 6.0 mph9.7 kmh 30.22 in1023.4 mb 0.00 in0.0 mm 0.00 in0.0 mm 0.04 in1.0 mm
06:10 PM 43.3°F6.3°C 31.6°F-0.2°C 63% 3.0 mph NNW4.8 kmh NNW 3.0 mph4.8 kmh 30.22 in1023.4 mb 0.00 in0.0 mm 0.00 in0.0 mm 0.04 in1.0 mm
06:12 PM 43.3°F6.3°C 31.6°F-0.2°C 63% 3.0 mph NW4.8 kmh NW 7.0 mph11.3 kmh 30.22 in1023.4 mb 0.00 in0.0 mm 0.00 in0.0 mm 0.04 in1.0 mm
06:14 PM 43.2°F6.2°C 31.5°F-0.3°C 63% 2.0 mph NW3.2 kmh NW 2.0 mph3.2 kmh 30.22 in1023.4 mb 0.00 in0.0 mm 0.00 in0.0 mm 0.04 in1.0 mm
06:16 PM 43.2°F6.2°C 31.5°F-0.3°C 63% 4.0 mph NW6.4 kmh NW 10.0 mph16.1 kmh 30.21 in1023.0 mb 0.00 in0.0 mm 0.00 in0.0 mm 0.04 in1.0 mm
06:18 PM 43.1°F6.2°C 31.4°F-0.3°C 63% 1.0 mph W1.6 kmh W 5.0 mph8.0 kmh 30.22 in1023.4 mb 0.00 in0.0 mm 0.00 in0.0 mm 0.04 in1.0 mm
06:20 PM 43.1°F6.2°C 31.4°F-0.3°C 63% 2.0 mph W3.2 kmh W 3.0 mph4.8 kmh 30.21 in1023.0 mb 0.00 in0.0 mm 0.00 in0.0 mm 0.04 in1.0 mm
06:22 PM 43.0°F6.1°C 31.3°F-0.4°C 63% 2.0 mph NW3.2 kmh NW 2.0 mph3.2 kmh 30.21 in1023.0 mb 0.00 in0.0 mm 0.00 in0.0 mm 0.04 in1.0 mm
06:24 PM 43.0°F6.1°C 31.3°F-0.4°C 63% 1.0 mph NW1.6 kmh NW 2.0 mph3.2 kmh 30.21 in1023.0 mb 0.00 in0.0 mm 0.00 in0.0 mm 0.04 in1.0 mm
06:26 PM 42.9°F6.1°C 31.2°F-0.4°C 63% Calm Calm -- 30.21 in1023.0 mb 0.00 in0.0 mm 0.00 in0.0 mm 0.04 in1.0 mm
06:28 PM 42.9°F6.1°C 31.2°F-0.4°C 63% 3.0 mph NNW4.8 kmh NNW 3.0 mph4.8 kmh 30.21 in1023.0 mb 0.00 in0.0 mm 0.00 in0.0 mm 0.04 in1.0 mm
06:30 PM 42.8°F6.0°C 31.1°F-0.5°C 63% 4.0 mph NW6.4 kmh NW 4.0 mph6.4 kmh 30.21 in1023.0 mb 0.00 in0.0 mm 0.00 in0.0 mm 0.04 in1.0 mm
06:32 PM 42.8°F6.0°C 31.1°F-0.5°C 63% 2.0 mph WNW3.2 kmh WNW 2.0 mph3.2 kmh 30.22 in1023.4 mb 0.00 in0.0 mm 0.00 in0.0 mm 0.04 in1.0 mm
06:34 PM 42.7°F5.9°C 31.4°F-0.3°C 64% 3.0 mph WNW4.8 kmh WNW 3.0 mph4.8 kmh 30.22 in1023.4 mb 0.00 in0.0 mm 0.00 in0.0 mm 0.04 in1.0 mm
06:36 PM 42.7°F5.9°C 31.0°F-0.6°C 63% 2.0 mph NW3.2 kmh NW 4.0 mph6.4 kmh 30.22 in1023.4 mb 0.00 in0.0 mm 0.00 in0.0 mm 0.04 in1.0 mm
06:38 PM 42.7°F5.9°C 31.4°F-0.3°C 64% 3.0 mph NW4.8 kmh NW 3.0 mph4.8 kmh 30.22 in1023.4 mb 0.00 in0.0 mm 0.00 in0.0 mm 0.04 in1.0 mm
06:40 PM 42.7°F5.9°C 31.4°F-0.3°C 64% Calm Calm 4.0 mph6.4 kmh 30.22 in1023.4 mb 0.00 in0.0 mm 0.00 in0.0 mm 0.04 in1.0 mm
06:42 PM 42.6°F5.9°C 31.3°F-0.4°C 64% 3.0 mph NW4.8 kmh NW 4.0 mph6.4 kmh 30.23 in1023.7 mb 0.00 in0.0 mm 0.00 in0.0 mm 0.04 in1.0 mm
06:44 PM 42.6°F5.9°C 31.3°F-0.4°C 64% 3.0 mph NW4.8 kmh NW 4.0 mph6.4 kmh 30.23 in1023.7 mb 0.00 in0.0 mm 0.00 in0.0 mm 0.04 in1.0 mm
06:46 PM 42.5°F5.8°C 31.2°F-0.4°C 64% Calm Calm -- 30.23 in1023.7 mb 0.00 in0.0 mm 0.00 in0.0 mm 0.04 in1.0 mm
06:48 PM 42.5°F5.8°C 31.2°F-0.4°C 64% Calm Calm -- 30.23 in1023.7 mb 0.00 in0.0 mm 0.00 in0.0 mm 0.04 in1.0 mm
06:50 PM 42.4°F5.8°C 31.1°F-0.5°C 64% Calm Calm 4.0 mph6.4 kmh 30.22 in1023.4 mb 0.00 in0.0 mm 0.00 in0.0 mm 0.04 in1.0 mm
06:52 PM 42.4°F5.8°C 30.7°F-0.7°C 63% Calm Calm -- 30.22 in1023.4 mb 0.00 in0.0 mm 0.00 in0.0 mm 0.04 in1.0 mm
06:54 PM 42.4°F5.8°C 31.1°F-0.5°C 64% 1.0 mph NW1.6 kmh NW 3.0 mph4.8 kmh 30.22 in1023.4 mb 0.00 in0.0 mm 0.00 in0.0 mm 0.04 in1.0 mm
06:56 PM 42.4°F5.8°C 31.1°F-0.5°C 64% 3.0 mph NW4.8 kmh NW 4.0 mph6.4 kmh 30.23 in1023.7 mb 0.00 in0.0 mm 0.00 in0.0 mm 0.04 in1.0 mm
06:58 PM 42.3°F5.7°C 31.0°F-0.6°C 64% 3.0 mph WNW4.8 kmh WNW 3.0 mph4.8 kmh 30.23 in1023.7 mb 0.00 in0.0 mm 0.00 in0.0 mm 0.04 in1.0 mm
07:00 PM 42.3°F5.7°C 31.0°F-0.6°C 64% 3.0 mph NW4.8 kmh NW 4.0 mph6.4 kmh 30.23 in1023.7 mb 0.00 in0.0 mm 0.00 in0.0 mm 0.04 in1.0 mm
07:02 PM 42.3°F5.7°C 31.0°F-0.6°C 64% 2.0 mph WNW3.2 kmh WNW 2.0 mph3.2 kmh 30.23 in1023.7 mb 0.00 in0.0 mm 0.00 in0.0 mm 0.04 in1.0 mm
07:04 PM 42.2°F5.7°C 30.9°F-0.6°C 64% 3.0 mph WNW4.8 kmh WNW 3.0 mph4.8 kmh 30.23 in1023.7 mb 0.00 in0.0 mm 0.00 in0.0 mm 0.04 in1.0 mm
07:06 PM 42.2°F5.7°C 30.9°F-0.6°C 64% 1.0 mph W1.6 kmh W 2.0 mph3.2 kmh 30.23 in1023.7 mb 0.00 in0.0 mm 0.00 in0.0 mm 0.04 in1.0 mm
07:08 PM 42.2°F5.7°C 30.9°F-0.6°C 64% 2.0 mph W3.2 kmh W 3.0 mph4.8 kmh 30.23 in1023.7 mb 0.00 in0.0 mm 0.00 in0.0 mm 0.04 in1.0 mm
07:10 PM 42.2°F5.7°C 30.9°F-0.6°C 64% 1.0 mph WNW1.6 kmh WNW 2.0 mph3.2 kmh 30.23 in1023.7 mb 0.00 in0.0 mm 0.00 in0.0 mm 0.04 in1.0 mm
07:12 PM 42.2°F5.7°C 30.9°F-0.6°C 64% 3.0 mph WNW4.8 kmh WNW 6.0 mph9.7 kmh 30.23 in1023.7 mb 0.00 in0.0 mm 0.00 in0.0 mm 0.04 in1.0 mm
07:14 PM 42.1°F5.6°C 31.2°F-0.4°C 65% 5.0 mph NW8.0 kmh NW 5.0 mph8.0 kmh 30.23 in1023.7 mb 0.00 in0.0 mm 0.00 in0.0 mm 0.04 in1.0 mm
07:16 PM 42.1°F5.6°C 31.2°F-0.4°C 65% 6.0 mph NW9.7 kmh NW 7.0 mph11.3 kmh 30.23 in1023.7 mb 0.00 in0.0 mm 0.00 in0.0 mm 0.04 in1.0 mm
07:18 PM 42.0°F5.6°C 31.1°F-0.5°C 65% 2.0 mph NW3.2 kmh NW 2.0 mph3.2 kmh 30.23 in1023.7 mb 0.00 in0.0 mm 0.00 in0.0 mm 0.04 in1.0 mm
07:20 PM 42.0°F5.6°C 31.1°F-0.5°C 65% 5.0 mph NW8.0 kmh NW 5.0 mph8.0 kmh 30.23 in1023.7 mb 0.00 in0.0 mm 0.00 in0.0 mm 0.04 in1.0 mm
07:22 PM 42.0°F5.6°C 31.1°F-0.5°C 65% 5.0 mph NW8.0 kmh NW 5.0 mph8.0 kmh 30.23 in1023.7 mb 0.00 in0.0 mm 0.00 in0.0 mm 0.04 in1.0 mm
07:24 PM 41.9°F5.5°C 31.0°F-0.6°C 65% 1.0 mph NW1.6 kmh NW 7.0 mph11.3 kmh 30.23 in1023.7 mb 0.00 in0.0 mm 0.00 in0.0 mm 0.04 in1.0 mm
07:26 PM 41.9°F5.5°C 31.0°F-0.6°C 65% 2.0 mph WNW3.2 kmh WNW 2.0 mph3.2 kmh 30.23 in1023.7 mb 0.00 in0.0 mm 0.00 in0.0 mm 0.04 in1.0 mm
07:28 PM 41.9°F5.5°C 31.0°F-0.6°C 65% 5.0 mph WNW8.0 kmh WNW 5.0 mph8.0 kmh 30.23 in1023.7 mb 0.00 in0.0 mm 0.00 in0.0 mm 0.04 in1.0 mm
07:30 PM 41.9°F5.5°C 31.0°F-0.6°C 65% 2.0 mph WNW3.2 kmh WNW 2.0 mph3.2 kmh 30.23 in1023.7 mb 0.00 in0.0 mm 0.00 in0.0 mm 0.04 in1.0 mm
07:32 PM 41.8°F5.4°C 30.9°F-0.6°C 65% 3.0 mph WNW4.8 kmh WNW 3.0 mph4.8 kmh 30.23 in1023.7 mb 0.00 in0.0 mm 0.00 in0.0 mm 0.04 in1.0 mm
07:34 PM 41.8°F5.4°C 30.9°F-0.6°C 65% Calm Calm 4.0 mph6.4 kmh 30.23 in1023.7 mb 0.00 in0.0 mm 0.00 in0.0 mm 0.04 in1.0 mm
07:36 PM 41.7°F5.4°C 30.8°F-0.7°C 65% 4.0 mph NW6.4 kmh NW 4.0 mph6.4 kmh 30.23 in1023.7 mb 0.00 in0.0 mm 0.00 in0.0 mm 0.04 in1.0 mm
07:38 PM 41.7°F5.4°C 30.8°F-0.7°C 65% 3.0 mph NW4.8 kmh NW 3.0 mph4.8 kmh 30.23 in1023.7 mb 0.00 in0.0 mm 0.00 in0.0 mm 0.04 in1.0 mm
07:40 PM 41.6°F5.3°C 30.7°F-0.7°C 65% 2.0 mph NW3.2 kmh NW 5.0 mph8.0 kmh 30.23 in1023.7 mb 0.00 in0.0 mm 0.00 in0.0 mm 0.04 in1.0 mm
07:42 PM 41.6°F5.3°C 30.7°F-0.7°C 65% 2.0 mph NW3.2 kmh NW 4.0 mph6.4 kmh 30.23 in1023.7 mb 0.00 in0.0 mm 0.00 in0.0 mm 0.04 in1.0 mm
07:44 PM 41.6°F5.3°C 30.7°F-0.7°C 65% Calm Calm 2.0 mph3.2 kmh 30.23 in1023.7 mb 0.00 in0.0 mm 0.00 in0.0 mm 0.04 in1.0 mm
07:46 PM 41.5°F5.3°C 31.0°F-0.6°C 66% 6.0 mph WNW9.7 kmh WNW 6.0 mph9.7 kmh 30.24 in1024.0 mb 0.00 in0.0 mm 0.00 in0.0 mm 0.04 in1.0 mm
07:48 PM 41.5°F5.3°C 31.0°F-0.6°C 66% 3.0 mph NW4.8 kmh NW 5.0 mph8.0 kmh 30.24 in1024.0 mb 0.00 in0.0 mm 0.00 in0.0 mm 0.04 in1.0 mm
07:50 PM 41.5°F5.3°C 31.0°F-0.6°C 66% Calm Calm 5.0 mph8.0 kmh 30.24 in1024.0 mb 0.00 in0.0 mm 0.00 in0.0 mm 0.04 in1.0 mm
07:52 PM 41.4°F5.2°C 30.9°F-0.6°C 66% 2.0 mph NNW3.2 kmh NNW 2.0 mph3.2 kmh 30.24 in1024.0 mb 0.00 in0.0 mm 0.00 in0.0 mm 0.04 in1.0 mm
07:54 PM 41.4°F5.2°C 30.9°F-0.6°C 66% 3.0 mph NNW4.8 kmh NNW 5.0 mph8.0 kmh 30.24 in1024.0 mb 0.00 in0.0 mm 0.00 in0.0 mm 0.04 in1.0 mm
07:56 PM 41.4°F5.2°C 30.9°F-0.6°C 66% 2.0 mph NW3.2 kmh NW 2.0 mph3.2 kmh 30.24 in1024.0 mb 0.00 in0.0 mm 0.00 in0.0 mm 0.04 in1.0 mm
07:58 PM 41.3°F5.2°C 30.8°F-0.7°C 66% 2.0 mph NW3.2 kmh NW 4.0 mph6.4 kmh 30.24 in1024.0 mb 0.00 in0.0 mm 0.00 in0.0 mm 0.04 in1.0 mm
08:00 PM 41.3°F5.2°C 30.8°F-0.7°C 66% 2.0 mph NW3.2 kmh NW 4.0 mph6.4 kmh 30.24 in1024.0 mb 0.00 in0.0 mm 0.00 in0.0 mm 0.04 in1.0 mm
08:02 PM 41.3°F5.2°C 30.8°F-0.7°C 66% 2.0 mph NW3.2 kmh NW 2.0 mph3.2 kmh 30.24 in1024.0 mb 0.00 in0.0 mm 0.00 in0.0 mm 0.04 in1.0 mm
08:04 PM 41.3°F5.2°C 30.8°F-0.7°C 66% 2.0 mph NW3.2 kmh NW 5.0 mph8.0 kmh 30.24 in1024.0 mb 0.00 in0.0 mm 0.00 in0.0 mm 0.04 in1.0 mm
08:06 PM 41.3°F5.2°C 30.8°F-0.7°C 66% 3.0 mph NW4.8 kmh NW 3.0 mph4.8 kmh 30.24 in1024.0 mb 0.00 in0.0 mm 0.00 in0.0 mm 0.04 in1.0 mm
08:08 PM 41.2°F5.1°C 30.7°F-0.7°C 66% 3.0 mph WNW4.8 kmh WNW 4.0 mph6.4 kmh 30.24 in1024.0 mb 0.00 in0.0 mm 0.00 in0.0 mm 0.04 in1.0 mm
08:10 PM 41.2°F5.1°C 30.7°F-0.7°C 66% Calm Calm 2.0 mph3.2 kmh 30.24 in1024.0 mb 0.00 in0.0 mm 0.00 in0.0 mm 0.04 in1.0 mm
10:00 PM 40.3°F4.6°C 30.6°F-0.8°C 68% 4.0 mph NW6.4 kmh NW 4.0 mph6.4 kmh 30.26 in1024.7 mb 0.00 in0.0 mm 0.00 in0.0 mm 0.04 in1.0 mm
10:02 PM 40.2°F4.6°C 30.5°F-0.8°C 68% 2.0 mph NW3.2 kmh NW 3.0 mph4.8 kmh 30.26 in1024.7 mb 0.00 in0.0 mm 0.00 in0.0 mm 0.04 in1.0 mm
10:04 PM 40.2°F4.6°C 30.5°F-0.8°C 68% 3.0 mph NW4.8 kmh NW 3.0 mph4.8 kmh 30.26 in1024.7 mb 0.00 in0.0 mm 0.00 in0.0 mm 0.04 in1.0 mm
10:06 PM 40.1°F4.5°C 30.4°F-0.9°C 68% 3.0 mph NW4.8 kmh NW 3.0 mph4.8 kmh 30.26 in1024.7 mb 0.00 in0.0 mm 0.00 in0.0 mm 0.04 in1.0 mm
10:08 PM 40.1°F4.5°C 30.4°F-0.9°C 68% 1.0 mph NW1.6 kmh NW 2.0 mph3.2 kmh 30.26 in1024.7 mb 0.00 in0.0 mm 0.00 in0.0 mm 0.04 in1.0 mm
10:10 PM 40.1°F4.5°C 30.8°F-0.7°C 69% 5.0 mph NW8.0 kmh NW 5.0 mph8.0 kmh 30.26 in1024.7 mb 0.00 in0.0 mm 0.00 in0.0 mm 0.04 in1.0 mm
10:12 PM 40.1°F4.5°C 30.8°F-0.7°C 69% 4.0 mph NNW6.4 kmh NNW 4.0 mph6.4 kmh 30.26 in1024.7 mb 0.00 in0.0 mm 0.00 in0.0 mm 0.04 in1.0 mm
10:14 PM 40.1°F4.5°C 30.8°F-0.7°C 69% 1.0 mph NNW1.6 kmh NNW 4.0 mph6.4 kmh 30.27 in1025.1 mb 0.00 in0.0 mm 0.00 in0.0 mm 0.04 in1.0 mm
10:16 PM 40.1°F4.5°C 30.8°F-0.7°C 69% 3.0 mph NW4.8 kmh NW 3.0 mph4.8 kmh 30.27 in1025.1 mb 0.00 in0.0 mm 0.00 in0.0 mm 0.04 in1.0 mm
10:18 PM 40.2°F4.6°C 30.9°F-0.6°C 69% 3.0 mph NW4.8 kmh NW 7.0 mph11.3 kmh 30.26 in1024.7 mb 0.00 in0.0 mm 0.00 in0.0 mm 0.04 in1.0 mm
10:22 PM 40.2°F4.6°C 30.9°F-0.6°C 69% 3.0 mph NW4.8 kmh NW 4.0 mph6.4 kmh 30.27 in1025.1 mb 0.00 in0.0 mm 0.00 in0.0 mm 0.04 in1.0 mm
10:24 PM 40.2°F4.6°C 30.5°F-0.8°C 68% 4.0 mph NW6.4 kmh NW 4.0 mph6.4 kmh 30.27 in1025.1 mb 0.00 in0.0 mm 0.00 in0.0 mm 0.04 in1.0 mm
10:26 PM 40.2°F4.6°C 30.5°F-0.8°C 68% 3.0 mph NW4.8 kmh NW 3.0 mph4.8 kmh 30.27 in1025.1 mb 0.00 in0.0 mm 0.00 in0.0 mm 0.04 in1.0 mm
10:28 PM 40.2°F4.6°C 30.5°F-0.8°C 68% 1.0 mph N1.6 kmh N 7.0 mph11.3 kmh 30.27 in1025.1 mb 0.00 in0.0 mm 0.00 in0.0 mm 0.04 in1.0 mm
10:30 PM 40.3°F4.6°C 30.6°F-0.8°C 68% 2.0 mph NW3.2 kmh NW 2.0 mph3.2 kmh 30.27 in1025.1 mb 0.00 in0.0 mm 0.00 in0.0 mm 0.04 in1.0 mm
10:32 PM 40.3°F4.6°C 30.6°F-0.8°C 68% Calm Calm 4.0 mph6.4 kmh 30.27 in1025.1 mb 0.00 in0.0 mm 0.00 in0.0 mm 0.04 in1.0 mm
10:34 PM 40.4°F4.7°C 30.7°F-0.7°C 68% 5.0 mph NNW8.0 kmh NNW 5.0 mph8.0 kmh 30.27 in1025.1 mb 0.00 in0.0 mm 0.00 in0.0 mm 0.04 in1.0 mm
10:36 PM 40.3°F4.6°C 30.6°F-0.8°C 68% 3.0 mph WNW4.8 kmh WNW 3.0 mph4.8 kmh 30.27 in1025.1 mb 0.00 in0.0 mm 0.00 in0.0 mm 0.04 in1.0 mm
10:38 PM 40.3°F4.6°C 30.6°F-0.8°C 68% 2.0 mph NW3.2 kmh NW 2.0 mph3.2 kmh 30.27 in1025.1 mb 0.00 in0.0 mm 0.00 in0.0 mm 0.04 in1.0 mm
10:40 PM 40.3°F4.6°C 30.6°F-0.8°C 68% 2.0 mph NW3.2 kmh NW 2.0 mph3.2 kmh 30.27 in1025.1 mb 0.00 in0.0 mm 0.00 in0.0 mm 0.04 in1.0 mm
10:42 PM 40.2°F4.6°C 30.5°F-0.8°C 68% 1.0 mph NW1.6 kmh NW 4.0 mph6.4 kmh 30.27 in1025.1 mb 0.00 in0.0 mm 0.00 in0.0 mm 0.04 in1.0 mm
10:44 PM 40.2°F4.6°C 30.5°F-0.8°C 68% 1.0 mph NW1.6 kmh NW 4.0 mph6.4 kmh 30.27 in1025.1 mb 0.00 in0.0 mm 0.00 in0.0 mm 0.04 in1.0 mm
10:46 PM 40.1°F4.5°C 30.4°F-0.9°C 68% 2.0 mph NW3.2 kmh NW 3.0 mph4.8 kmh 30.27 in1025.1 mb 0.00 in0.0 mm 0.00 in0.0 mm 0.04 in1.0 mm
10:48 PM 40.1°F4.5°C 30.4°F-0.9°C 68% 1.0 mph NNW1.6 kmh NNW 7.0 mph11.3 kmh 30.27 in1025.1 mb 0.00 in0.0 mm 0.00 in0.0 mm 0.04 in1.0 mm
10:50 PM 40.0°F4.4°C 30.3°F-0.9°C 68% 4.0 mph NNW6.4 kmh NNW 9.0 mph14.5 kmh 30.27 in1025.1 mb 0.00 in0.0 mm 0.00 in0.0 mm 0.04 in1.0 mm
10:52 PM 40.0°F4.4°C 30.3°F-0.9°C 68% 5.0 mph NW8.0 kmh NW 6.0 mph9.7 kmh 30.27 in1025.1 mb 0.00 in0.0 mm 0.00 in0.0 mm 0.04 in1.0 mm
10:54 PM 39.9°F4.4°C 30.2°F-1.0°C 68% 2.0 mph NW3.2 kmh NW 6.0 mph9.7 kmh 30.27 in1025.1 mb 0.00 in0.0 mm 0.00 in0.0 mm 0.04 in1.0 mm
10:56 PM 39.9°F4.4°C 30.2°F-1.0°C 68% 2.0 mph NW3.2 kmh NW 2.0 mph3.2 kmh 30.27 in1025.1 mb 0.00 in0.0 mm 0.00 in0.0 mm 0.04 in1.0 mm
10:58 PM 39.9°F4.4°C 30.2°F-1.0°C 68% 1.0 mph WNW1.6 kmh WNW 3.0 mph4.8 kmh 30.27 in1025.1 mb 0.00 in0.0 mm 0.00 in0.0 mm 0.04 in1.0 mm
11:00 PM 39.8°F4.3°C 30.1°F-1.1°C 68% 4.0 mph NNW6.4 kmh NNW 10.0 mph16.1 kmh 30.26 in1024.7 mb 0.00 in0.0 mm 0.00 in0.0 mm 0.04 in1.0 mm
11:02 PM 39.8°F4.3°C 30.1°F-1.1°C 68% 5.0 mph NW8.0 kmh NW 5.0 mph8.0 kmh 30.27 in1025.1 mb 0.00 in0.0 mm 0.00 in0.0 mm 0.04 in1.0 mm
11:04 PM 39.8°F4.3°C 30.1°F-1.1°C 68% 1.0 mph NNW1.6 kmh NNW 1.0 mph1.6 kmh 30.26 in1024.7 mb 0.00 in0.0 mm 0.00 in0.0 mm 0.04 in1.0 mm
11:06 PM 39.8°F4.3°C 30.1°F-1.1°C 68% 2.0 mph NNW3.2 kmh NNW 3.0 mph4.8 kmh 30.26 in1024.7 mb 0.00 in0.0 mm 0.00 in0.0 mm 0.04 in1.0 mm
11:08 PM 39.7°F4.3°C 30.0°F-1.1°C 68% 1.0 mph NNW1.6 kmh NNW 4.0 mph6.4 kmh 30.26 in1024.7 mb 0.00 in0.0 mm 0.00 in0.0 mm 0.04 in1.0 mm
11:10 PM 39.7°F4.3°C 30.0°F-1.1°C 68% Calm Calm 2.0 mph3.2 kmh 30.26 in1024.7 mb 0.00 in0.0 mm 0.00 in0.0 mm 0.04 in1.0 mm
11:12 PM 39.6°F4.2°C 29.9°F-1.2°C 68% Calm Calm -- 30.26 in1024.7 mb 0.00 in0.0 mm 0.00 in0.0 mm 0.04 in1.0 mm
11:14 PM 39.6°F4.2°C 29.9°F-1.2°C 68% 1.0 mph NNW1.6 kmh NNW 2.0 mph3.2 kmh 30.27 in1025.1 mb 0.00 in0.0 mm 0.00 in0.0 mm 0.04 in1.0 mm
11:16 PM 39.6°F4.2°C 30.3°F-0.9°C 69% Calm Calm 2.0 mph3.2 kmh 30.26 in1024.7 mb 0.00 in0.0 mm 0.00 in0.0 mm 0.04 in1.0 mm
11:18 PM 39.5°F4.2°C 30.2°F-1.0°C 69% 2.0 mph NNW3.2 kmh NNW 2.0 mph3.2 kmh 30.26 in1024.7 mb 0.00 in0.0 mm 0.00 in0.0 mm 0.04 in1.0 mm
11:20 PM 39.5°F4.2°C 30.2°F-1.0°C 69% Calm Calm -- 30.26 in1024.7 mb 0.00 in0.0 mm 0.00 in0.0 mm 0.04 in1.0 mm
11:22 PM 39.4°F4.1°C 30.1°F-1.1°C 69% Calm Calm 1.0 mph1.6 kmh 30.26 in1024.7 mb 0.00 in0.0 mm 0.00 in0.0 mm 0.04 in1.0 mm
11:24 PM 39.3°F4.1°C 30.0°F-1.1°C 69% Calm Calm -- 30.26 in1024.7 mb 0.00 in0.0 mm 0.00 in0.0 mm 0.04 in1.0 mm
11:26 PM 39.3°F4.1°C 30.0°F-1.1°C 69% 2.0 mph NNW3.2 kmh NNW 4.0 mph6.4 kmh 30.26 in1024.7 mb 0.00 in0.0 mm 0.00 in0.0 mm 0.04 in1.0 mm
11:28 PM 39.2°F4.0°C 29.9°F-1.2°C 69% Calm Calm -- 30.26 in1024.7 mb 0.00 in0.0 mm 0.00 in0.0 mm 0.04 in1.0 mm
11:30 PM 39.2°F4.0°C 29.9°F-1.2°C 69% Calm Calm -- 30.26 in1024.7 mb 0.00 in0.0 mm 0.00 in0.0 mm 0.04 in1.0 mm
11:32 PM 39.1°F3.9°C 29.8°F-1.2°C 69% Calm Calm -- 30.26 in1024.7 mb 0.00 in0.0 mm 0.00 in0.0 mm 0.04 in1.0 mm
11:34 PM 39.0°F3.9°C 29.7°F-1.3°C 69% 1.0 mph NNW1.6 kmh NNW 1.0 mph1.6 kmh 30.26 in1024.7 mb 0.00 in0.0 mm 0.00 in0.0 mm 0.04 in1.0 mm
11:36 PM 39.0°F3.9°C 30.1°F-1.1°C 70% Calm Calm 1.0 mph1.6 kmh 30.26 in1024.7 mb 0.00 in0.0 mm 0.00 in0.0 mm 0.04 in1.0 mm
11:38 PM 38.9°F3.8°C 30.0°F-1.1°C 70% Calm Calm -- 30.26 in1024.7 mb 0.00 in0.0 mm 0.00 in0.0 mm 0.04 in1.0 mm
11:40 PM 38.9°F3.8°C 30.0°F-1.1°C 70% Calm Calm -- 30.26 in1024.7 mb 0.00 in0.0 mm 0.00 in0.0 mm 0.04 in1.0 mm
11:42 PM 38.8°F3.8°C 29.9°F-1.2°C 70% Calm Calm 2.0 mph3.2 kmh 30.26 in1024.7 mb 0.00 in0.0 mm 0.00 in0.0 mm 0.04 in1.0 mm
11:44 PM 38.8°F3.8°C 29.9°F-1.2°C 70% Calm Calm -- 30.26 in1024.7 mb 0.00 in0.0 mm 0.00 in0.0 mm 0.04 in1.0 mm
11:46 PM 38.8°F3.8°C 29.9°F-1.2°C 70% Calm Calm -- 30.26 in1024.7 mb 0.00 in0.0 mm 0.00 in0.0 mm 0.04 in1.0 mm
11:48 PM 38.7°F3.7°C 29.8°F-1.2°C 70% 1.0 mph NNW1.6 kmh NNW 1.0 mph1.6 kmh 30.26 in1024.7 mb 0.00 in0.0 mm 0.00 in0.0 mm 0.04 in1.0 mm
11:50 PM 38.7°F3.7°C 29.8°F-1.2°C 70% Calm Calm 2.0 mph3.2 kmh 30.26 in1024.7 mb 0.00 in0.0 mm 0.00 in0.0 mm 0.04 in1.0 mm
11:52 PM 38.6°F3.7°C 29.7°F-1.3°C 70% Calm Calm -- 30.26 in1024.7 mb 0.00 in0.0 mm 0.00 in0.0 mm 0.04 in1.0 mm
11:54 PM 38.6°F3.7°C 29.7°F-1.3°C 70% Calm Calm -- 30.26 in1024.7 mb 0.00 in0.0 mm 0.00 in0.0 mm 0.04 in1.0 mm
11:56 PM 38.5°F3.6°C 29.9°F-1.2°C 71% Calm Calm -- 30.26 in1024.7 mb 0.00 in0.0 mm 0.00 in0.0 mm 0.04 in1.0 mm
11:58 PM 38.5°F3.6°C 29.9°F-1.2°C 71% Calm Calm -- 30.26 in1024.7 mb 0.00 in0.0 mm 0.00 in0.0 mm 0.04 in1.0 mm